Observation data for Umbarger on 02/23/2019      Previous  Date  Next       Current Mesonet Observations  Soil Data  Daily Summary Page  Observations in Plain Language
KUM1 230600Z 13018KT 04/04 A297 RMK A01 T00370035  RH  099%=      5-min Rain = 0
KUM1 230601Z 13018KT 04/04 A297 RMK A01 T00370035  RH  099%=      5-min Rain = 0
KUM1 230602Z 13015KT 04/04 A297 RMK A01 T00370036  RH  099%=      5-min Rain = 0
KUM1 230603Z 13016KT 04/04 A297 RMK A01 T00370036  RH  099%=      5-min Rain = 0
KUM1 230604Z 13017KT 04/04 A297 RMK A01 T00370036  RH  099%=      5-min Rain = 0
KUM1 230605Z 12016KT 04/04 A297 RMK A01 T00370035  RH  099%=      5-min Rain = 0
KUM1 230606Z 12017KT 04/04 A297 RMK A01 T00370035  RH  099%=      5-min Rain = 0
KUM1 230607Z 12016KT 04/04 A297 RMK A01 T00370035  RH  099%=      5-min Rain = 0
KUM1 230608Z 12013KT 04/04 A297 RMK A01 T00370035  RH  099%=      5-min Rain = 0
KUM1 230609Z 12013KT 04/04 A2969 RMK A01 T00370035  RH  099%=      5-min Rain = 0
KUM1 230610Z 12013KT 04/04 A2969 RMK A01 T00370035  RH  099%=      5-min Rain = 0
KUM1 230611Z 12013KT 04/04 A2969 RMK A01 T00370035  RH  099%=      5-min Rain = 0
KUM1 230612Z 12013KT 04/04 A2969 RMK A01 T00370035  RH  099%=      5-min Rain = 0
KUM1 230613Z 13012KT 04/04 A2969 RMK A01 T00370035  RH  099%=      5-min Rain = 0
KUM1 230614Z 13013KT 04/04 A297 RMK A01 T00370035  RH  099%=      5-min Rain = 0
KUM1 230615Z 13014KT 04/04 A297 RMK A01 T00370036  RH  099%=      5-min Rain = 0
KUM1 230616Z 13016KT 04/04 A297 RMK A01 T00370036  RH  099%=      5-min Rain = 0
KUM1 230617Z 13014KT 04/04 A297 RMK A01 T00370036  RH  099%=      5-min Rain = 0
KUM1 230618Z 12012KT 04/04 A2969 RMK A01 T00370036  RH  099%=      5-min Rain = 0
KUM1 230619Z 12012KT 04/04 A2969 RMK A01 T00370036  RH  099%=      5-min Rain = 0
KUM1 230620Z 12013KT 04/04 A2969 RMK A01 T00370036  RH  099%=      5-min Rain = 0
KUM1 230621Z 13013KT 04/04 A297 RMK A01 T00370036  RH  099%=      5-min Rain = 0
KUM1 230622Z 13013KT 04/04 A297 RMK A01 T00370036  RH  099%=      5-min Rain = 0
KUM1 230623Z 13014KT 04/04 A2971 RMK A01 T00370036  RH  099%=      5-min Rain = 0
KUM1 230624Z 13013KT 04/04 A2971 RMK A01 T00380036  RH  099%=      5-min Rain = 0
KUM1 230625Z 14012KT 04/04 A2971 RMK A01 T00380036  RH  099%=      5-min Rain = 0
KUM1 230626Z 14013KT 04/04 A2971 RMK A01 T00380037  RH  099%=      5-min Rain = 0
KUM1 230627Z 14015KT 04/04 A2972 RMK A01 T00380037  RH  099%=      5-min Rain = 0
KUM1 230628Z 13014KT 04/04 A2971 RMK A01 T00380037  RH  099%=      5-min Rain = 0
KUM1 230629Z 13014KT 04/04 A2971 RMK A01 T00380037  RH  099%=      5-min Rain = 0
KUM1 230630Z 13014KT 04/04 A2971 RMK A01 T00380037  RH  099%=      5-min Rain = 0
KUM1 230631Z 12014KT 04/04 A297 RMK A01 T00380037  RH  099%=      5-min Rain = 0
KUM1 230632Z 12012KT 04/04 A297 RMK A01 T00380037  RH  099%=      5-min Rain = 0
KUM1 230633Z 12010KT 04/04 A2969 RMK A01 T00380037  RH  099%=      5-min Rain = 0
KUM1 230634Z 09008KT 04/04 A2967 RMK A01 T00380037  RH  099%=      5-min Rain = 0
KUM1 230635Z 09010KT 04/04 A2967 RMK A01 T00380036  RH  099%=      5-min Rain = 0
KUM1 230636Z 10011KT 04/04 A2967 RMK A01 T00380037  RH  099%=      5-min Rain = 0
KUM1 230637Z 11010KT 04/04 A2967 RMK A01 T00380037  RH  099%=      5-min Rain = 0
KUM1 230638Z 12013KT 04/04 A2968 RMK A01 T00370036  RH  099%=      5-min Rain = 0
KUM1 230639Z 12013KT 04/04 A2969 RMK A01 T00380037  RH  099%=      5-min Rain = 0
KUM1 230640Z 12012KT 04/04 A2968 RMK A01 T00380037  RH  099%=      5-min Rain = 0.01
KUM1 230641Z 12013KT 04/04 A2968 RMK A01 T00380037  RH  099%=      5-min Rain = 0
KUM1 230642Z 11013KT 04/04 A2968 RMK A01 T00380037  RH  099%=      5-min Rain = 0
KUM1 230643Z 12014KT 04/04 A2967 RMK A01 T00380037  RH  099%=      5-min Rain = 0
KUM1 230644Z 11010KT 04/04 A2967 RMK A01 T00380037  RH  099%=      5-min Rain = 0
KUM1 230645Z 11009KT 04/04 A2967 RMK A01 T00380037  RH  099%=      5-min Rain = 0
KUM1 230646Z 11012KT 04/04 A2968 RMK A01 T00380037  RH  099%=      5-min Rain = 0
KUM1 230647Z 11010KT 04/04 A2967 RMK A01 T00380037  RH  099%=      5-min Rain = 0
KUM1 230648Z 11009KT 04/04 A2966 RMK A01 T00380037  RH  099%=      5-min Rain = 0
KUM1 230649Z 11009KT 04/04 A2966 RMK A01 T00380037  RH  099%=      5-min Rain = 0
KUM1 230650Z 12011KT 04/04 A2967 RMK A01 T00380037  RH  099%=      5-min Rain = 0
KUM1 230651Z 12013KT 04/04 A2968 RMK A01 T00380037  RH  099%=      5-min Rain = 0
KUM1 230652Z 12013KT 04/04 A2968 RMK A01 T00380037  RH  099%=      5-min Rain = 0
KUM1 230653Z 12014KT 04/04 A2968 RMK A01 T00380037  RH  099%=      5-min Rain = 0
KUM1 230654Z 11011KT 04/04 A2968 RMK A01 T00380037  RH  099%=      5-min Rain = 0
KUM1 230655Z 11010KT 04/04 A2967 RMK A01 T00380037  RH  099%=      5-min Rain = 0
KUM1 230656Z 12013KT 04/04 A2968 RMK A01 T00380037  RH  099%=      5-min Rain = 0
KUM1 230657Z 13015KT 04/04 A2969 RMK A01 T00380037  RH  099%=      5-min Rain = 0
KUM1 230658Z 13015KT 04/04 A2969 RMK A01 T00380037  RH  099%=      5-min Rain = 0
KUM1 230659Z 13014KT 04/04 A2969 RMK A01 T00380037  RH  099%=      5-min Rain = 0.01
KUM1 230700Z 12013KT 04/04 A2969 RMK A01 T00380037  RH  099%=      5-min Rain = 0.01
KUM1 230701Z 12012KT 04/04 A2969 RMK A01 T00380037  RH  099%=      5-min Rain = 0
KUM1 230702Z 12012KT 04/04 A2969 RMK A01 T00370036  RH  099%=      5-min Rain = 0
KUM1 230703Z 11012KT 04/04 A2968 RMK A01 T00370036  RH  099%=      5-min Rain = 0
KUM1 230704Z 12013KT 04/04 A2968 RMK A01 T00370036  RH  099%=      5-min Rain = 0.01
KUM1 230705Z 12014KT 04/04 A2968 RMK A01 T00370036  RH  099%=      5-min Rain = 0
KUM1 230706Z 12014KT 04/04 A2968 RMK A01 T00370036  RH  099%=      5-min Rain = 0
KUM1 230707Z 13015KT 04/04 A2968 RMK A01 T00370036  RH  099%=      5-min Rain = 0
KUM1 230708Z 13015KT 04/04 A2968 RMK A01 T00370036  RH  099%=      5-min Rain = 0
KUM1 230709Z 12015KT 04/04 A2967 RMK A01 T00370036  RH  099%=      5-min Rain = 0
KUM1 230710Z 11012KT 04/04 A2967 RMK A01 T00370036  RH  099%=      5-min Rain = 0
KUM1 230711Z 12015KT 04/04 A2967 RMK A01 T00370036  RH  099%=      5-min Rain = 0
KUM1 230712Z 12015KT 04/04 A2967 RMK A01 T00370036  RH  099%=      5-min Rain = 0
KUM1 230713Z 12012KT 04/04 A2967 RMK A01 T00370036  RH  099%=      5-min Rain = 0
KUM1 230714Z 12013KT 04/04 A2967 RMK A01 T00370036  RH  099%=      5-min Rain = 0
KUM1 230715Z 12012KT 04/04 A2967 RMK A01 T00370036  RH  099%=      5-min Rain = 0
KUM1 230716Z 12014KT 04/04 A2967 RMK A01 T00370037  RH  100%=      5-min Rain = 0.01
KUM1 230717Z 12016KT 04/04 A2968 RMK A01 T00370036  RH  099%=      5-min Rain = 0
KUM1 230718Z 12014KT 04/04 A2968 RMK A01 T00370036  RH  099%=      5-min Rain = 0
KUM1 230719Z 12014KT 04/04 A2968 RMK A01 T00370036  RH  099%=      5-min Rain = 0
KUM1 230720Z 11012KT 04/04 A2967 RMK A01 T00370037  RH  100%=      5-min Rain = 0
KUM1 230721Z 12013KT 04/04 A2967 RMK A01 T00370036  RH  099%=      5-min Rain = 0
KUM1 230722Z 12013KT 04/04 A2967 RMK A01 T00370037  RH  099%=      5-min Rain = 0
KUM1 230723Z 12013KT 04/04 A2967 RMK A01 T00370037  RH  100%=      5-min Rain = 0
KUM1 230724Z 12014KT 04/04 A2967 RMK A01 T00370036  RH  100%=      5-min Rain = 0
KUM1 230725Z 12011KT 04/04 A2967 RMK A01 T00370037  RH  100%=      5-min Rain = 0
KUM1 230726Z 12013KT 04/04 A2968 RMK A01 T00370036  RH  100%=      5-min Rain = 0.01
KUM1 230727Z 12012G17KT 04/04 A2967 RMK A01 T00370036  RH  100%=      5-min Rain = 0
KUM1 230728Z 12014KT 04/04 A2968 RMK A01 T00370036  RH  100%=      5-min Rain = 0
KUM1 230729Z 13012KT 04/04 A2968 RMK A01 T00370036  RH  100%=      5-min Rain = 0
KUM1 230730Z 14012KT 04/04 A2968 RMK A01 T00370036  RH  100%=      5-min Rain = 0
KUM1 230731Z 18011KT 04/04 A297 RMK A01 T00370036  RH  100%=      5-min Rain = 0
KUM1 230732Z 22014KT 04/04 A2971 RMK A01 T00380037  RH  100%=      5-min Rain = 0
KUM1 230733Z 24013KT 04/04 A297 RMK A01 T00380037  RH  100%=      5-min Rain = 0
KUM1 230734Z 24009KT 04/04 A297 RMK A01 T00380038  RH  100%=      5-min Rain = 0.01
KUM1 230735Z 24008KT 04/04 A297 RMK A01 T00380037  RH  100%=      5-min Rain = 0
KUM1 230736Z 25010KT 04/04 A297 RMK A01 T00380037  RH  100%=      5-min Rain = 0
KUM1 230737Z 25010KT 03/03 A297 RMK A01 T00340033  RH  099%=      5-min Rain = 0.01
KUM1 230738Z 25010KT 03/03 A2969 RMK A01 T00310030  RH  099%=      5-min Rain = 0.01
KUM1 230739Z 25011KT 03/03 A2969 RMK A01 T00300029  RH  099%=      5-min Rain = 0.01
KUM1 230740Z 25011KT 03/03 A2969 RMK A01 T00290028  RH  099%=      5-min Rain = 0
KUM1 230741Z 24009KT 03/03 A297 RMK A01 T00300029  RH  099%=      5-min Rain = 0.01
KUM1 230742Z 24010KT 03/03 A297 RMK A01 T00300029  RH  099%=      5-min Rain = 0
KUM1 230743Z 23011KT 03/03 A2971 RMK A01 T00300029  RH  099%=      5-min Rain = 0.01
KUM1 230744Z 22007KT 03/03 A2971 RMK A01 T00300029  RH  099%=      5-min Rain = 0.01
KUM1 230745Z 21007KT 03/03 A2971 RMK A01 T00300029  RH  099%=      5-min Rain = 0.01
KUM1 230746Z 22007KT 03/03 A2971 RMK A01 T00310029  RH  099%=      5-min Rain = 0
KUM1 230747Z 22006KT 03/03 A297 RMK A01 T00310030  RH  099%=      5-min Rain = 0
KUM1 230748Z 21006KT 03/03 A297 RMK A01 T00320031  RH  099%=      5-min Rain = 0.01
KUM1 230749Z 20007KT 03/03 A297 RMK A01 T00330032  RH  099%=      5-min Rain = 0
KUM1 230750Z 19007KT 03/03 A297 RMK A01 T00330032  RH  099%=      5-min Rain = 0
KUM1 230751Z 18006KT 03/03 A297 RMK A01 T00330032  RH  099%=      5-min Rain = 0
KUM1 230752Z 19005KT 03/03 A2969 RMK A01 T00330032  RH  099%=      5-min Rain = 0
KUM1 230753Z 21005KT 03/03 A2969 RMK A01 T00330032  RH  099%=      5-min Rain = 0
KUM1 230754Z 17005KT 03/03 A2969 RMK A01 T00340033  RH  099%=      5-min Rain = 0
KUM1 230755Z 16005KT 03/03 A2969 RMK A01 T00340033  RH  099%=      5-min Rain = 0
KUM1 230756Z 15005KT 04/03 A2968 RMK A01 T00350034  RH  099%=      5-min Rain = 0
KUM1 230757Z 15005KT 03/03 A2969 RMK A01 T00340033  RH  099%=      5-min Rain = 0.01
KUM1 230758Z 16006KT 04/03 A2969 RMK A01 T00350034  RH  099%=      5-min Rain = 0
KUM1 230759Z 17007KT 04/03 A2969 RMK A01 T00350034  RH  099%=      5-min Rain = 0
KUM1 230800Z 16007KT 04/03 A2969 RMK A01 T00350034  RH  099%=      5-min Rain = 0
KUM1 230801Z 16008KT 04/03 A297 RMK A01 T00360034  RH  099%=      5-min Rain = 0
KUM1 230802Z 18009KT 04/04 A297 RMK A01 T00360035  RH  099%=      5-min Rain = 0
KUM1 230803Z 18008KT 04/03 A297 RMK A01 T00360034  RH  099%=      5-min Rain = 0.01
KUM1 230804Z 19007KT 04/03 A297 RMK A01 T00360034  RH  099%=      5-min Rain = 0
KUM1 230805Z 19008KT 04/03 A2969 RMK A01 T00350033  RH  099%=      5-min Rain = 0.01
KUM1 230806Z 19008KT 04/03 A297 RMK A01 T00350033  RH  099%=      5-min Rain = 0
KUM1 230807Z 19008KT 04/03 A297 RMK A01 T00350033  RH  099%=      5-min Rain = 0
KUM1 230808Z 19007KT 04/03 A297 RMK A01 T00360034  RH  099%=      5-min Rain = 0.01
KUM1 230809Z 19007KT 04/03 A297 RMK A01 T00350034  RH  099%=      5-min Rain = 0
KUM1 230810Z 19007KT 04/03 A297 RMK A01 T00350034  RH  099%=      5-min Rain = 0.01
KUM1 230811Z 19008KT 04/03 A297 RMK A01 T00350033  RH  099%=      5-min Rain = 0
KUM1 230812Z 19009KT 04/03 A297 RMK A01 T00350033  RH  099%=      5-min Rain = 0
KUM1 230813Z 19009KT 04/03 A297 RMK A01 T00360034  RH  099%=      5-min Rain = 0
KUM1 230814Z 18008KT 04/03 A297 RMK A01 T00350033  RH  099%=      5-min Rain = 0.01
KUM1 230815Z 18008KT 04/03 A297 RMK A01 T00350033  RH  099%=      5-min Rain = 0
KUM1 230816Z 18008KT 04/03 A297 RMK A01 T00350033  RH  099%=      5-min Rain = 0
KUM1 230817Z 17009KT 04/03 A2969 RMK A01 T00350033  RH  099%=      5-min Rain = 0
KUM1 230818Z 17009KT 04/03 A2969 RMK A01 T00350033  RH  098%=      5-min Rain = 0
KUM1 230819Z 16008KT 04/03 A2969 RMK A01 T00350033  RH  098%=      5-min Rain = 0
KUM1 230820Z 16009KT 04/03 A2969 RMK A01 T00350033  RH  098%=      5-min Rain = 0
KUM1 230821Z 16009KT 04/03 A2969 RMK A01 T00350033  RH  098%=      5-min Rain = 0
KUM1 230822Z 15009KT 04/03 A2969 RMK A01 T00360033  RH  098%=      5-min Rain = 0
KUM1 230823Z 15009KT 04/03 A2968 RMK A01 T00350033  RH  098%=      5-min Rain = 0
KUM1 230824Z 15008KT 04/03 A2968 RMK A01 T00350033  RH  098%=      5-min Rain = 0
KUM1 230825Z 16009KT 04/03 A2968 RMK A01 T00350033  RH  098%=      5-min Rain = 0
KUM1 230826Z 15008KT 04/03 A2968 RMK A01 T00350033  RH  098%=      5-min Rain = 0
KUM1 230827Z 16009KT 04/03 A2968 RMK A01 T00350033  RH  098%=      5-min Rain = 0
KUM1 230828Z 16008KT 04/03 A2968 RMK A01 T00350033  RH  098%=      5-min Rain = 0
KUM1 230829Z 16009KT 04/03 A2968 RMK A01 T00350033  RH  098%=      5-min Rain = 0
KUM1 230830Z 16008KT 04/03 A2968 RMK A01 T00350033  RH  098%=      5-min Rain = 0
KUM1 230831Z 16009KT 04/03 A2968 RMK A01 T00360033  RH  098%=      5-min Rain = 0
KUM1 230832Z 15009KT 04/03 A2967 RMK A01 T00350033  RH  098%=      5-min Rain = 0
KUM1 230833Z 14010KT 04/03 A2967 RMK A01 T00350033  RH  098%=      5-min Rain = 0
KUM1 230834Z 15009KT 04/03 A2967 RMK A01 T00350033  RH  098%=      5-min Rain = 0
KUM1 230835Z 17008KT 04/03 A2968 RMK A01 T00350033  RH  098%=      5-min Rain = 0
KUM1 230836Z 17008KT 04/03 A2968 RMK A01 T00350032  RH  098%=      5-min Rain = 0
KUM1 230837Z 16007KT 04/03 A2968 RMK A01 T00350033  RH  098%=      5-min Rain = 0.01
KUM1 230838Z 15008KT 04/03 A2968 RMK A01 T00350033  RH  098%=      5-min Rain = 0
KUM1 230839Z 17009KT 04/03 A2968 RMK A01 T00350033  RH  098%=      5-min Rain = 0
KUM1 230840Z 17008KT 04/03 A2968 RMK A01 T00350033  RH  098%=      5-min Rain = 0
KUM1 230841Z 17009KT 04/03 A2968 RMK A01 T00360034  RH  098%=      5-min Rain = 0
KUM1 230842Z 16009KT 04/03 A2968 RMK A01 T00360034  RH  098%=      5-min Rain = 0
KUM1 230843Z 16010KT 04/03 A2968 RMK A01 T00360034  RH  098%=      5-min Rain = 0
KUM1 230844Z 16010KT 04/03 A2967 RMK A01 T00360034  RH  098%=      5-min Rain = 0
KUM1 230845Z 16011KT 04/03 A2967 RMK A01 T00370034  RH  098%=      5-min Rain = 0
KUM1 230846Z 18011KT 04/03 A2968 RMK A01 T00370034  RH  098%=      5-min Rain = 0
KUM1 230847Z 18011KT 04/04 A2968 RMK A01 T00370035  RH  098%=      5-min Rain = 0
KUM1 230848Z 20012KT 04/04 A2968 RMK A01 T00370035  RH  098%=      5-min Rain = 0
KUM1 230849Z 21015KT 04/04 A2969 RMK A01 T00380036  RH  098%=      5-min Rain = 0.01
KUM1 230850Z 20019KT 04/04 A2968 RMK A01 T00380035  RH  098%=      5-min Rain = 0
KUM1 230851Z 22016G24KT 04/03 A2968 RMK A01 T00360033  RH  098%=      5-min Rain = 0
KUM1 230852Z 23015KT 04/03 A2968 RMK A01 T00360032  RH  097%=      5-min Rain = 0
KUM1 230853Z 23014G19KT 03/03 A2968 RMK A01 T00340029  RH  096%=      5-min Rain = 0
KUM1 230854Z 23015KT 03/03 A2968 RMK A01 T00330027  RH  095%=      5-min Rain = 0
KUM1 230855Z 23016G21KT 03/03 A2968 RMK A01 T00330025  RH  095%=      5-min Rain = 0
KUM1 230856Z 23015G20KT 03/02 A2968 RMK A01 T00320024  RH  094%=      5-min Rain = 0
KUM1 230857Z 23013KT 03/02 A2968 RMK A01 T00320023  RH  094%=      5-min Rain = 0
KUM1 230858Z 23014KT 03/02 A2968 RMK A01 T00320023  RH  094%=      5-min Rain = 0.01
KUM1 230859Z 23015G22KT 03/02 A2967 RMK A01 T00320023  RH  094%=      5-min Rain = 0
KUM1 230900Z 24017KT 03/02 A2967 RMK A01 T00320024  RH  094%=      5-min Rain = 0
KUM1 230901Z 24018G24KT 03/02 A2967 RMK A01 T00330023  RH  094%=      5-min Rain = 0
KUM1 230902Z 24020G25KT 03/02 A2967 RMK A01 T00330023  RH  093%=      5-min Rain = 0
KUM1 230903Z 24021KT 03/02 A2967 RMK A01 T00330023  RH  093%=      5-min Rain = 0
KUM1 230904Z 24020KT 03/02 A2967 RMK A01 T00340024  RH  093%=      5-min Rain = 0
KUM1 230905Z 24020G25KT 04/02 A2967 RMK A01 T00350024  RH  092%=      5-min Rain = 0
KUM1 230906Z 25022KT 04/03 A2966 RMK A01 T00360025  RH  092%=      5-min Rain = 0
KUM1 230907Z 26019KT 04/03 A2966 RMK A01 T00370025  RH  092%=      5-min Rain = 0
KUM1 230908Z 26019G24KT 04/03 A2966 RMK A01 T00370025  RH  092%=      5-min Rain = 0
KUM1 230909Z 26021KT 04/02 A2966 RMK A01 T00370024  RH  091%=      5-min Rain = 0
KUM1 230910Z 27020KT 04/02 A2966 RMK A01 T00370023  RH  090%=      5-min Rain = 0
KUM1 230911Z 26019KT 04/02 A2966 RMK A01 T00370022  RH  090%=      5-min Rain = 0
KUM1 230912Z 27020KT 04/02 A2966 RMK A01 T00370021  RH  090%=      5-min Rain = 0
KUM1 230913Z 26018KT 04/02 A2966 RMK A01 T00370021  RH  089%=      5-min Rain = 0
KUM1 230914Z 26018KT 04/02 A2966 RMK A01 T00360021  RH  090%=      5-min Rain = 0
KUM1 230915Z 27017KT 04/02 A2966 RMK A01 T00360021  RH  090%=      5-min Rain = 0
KUM1 230916Z 27015KT 04/02 A2967 RMK A01 T00350021  RH  090%=      5-min Rain = 0
KUM1 230917Z 27015KT 04/02 A2967 RMK A01 T00350021  RH  091%=      5-min Rain = 0
KUM1 230918Z 27017KT 03/02 A2966 RMK A01 T00340021  RH  091%=      5-min Rain = 0
KUM1 230919Z 27015KT 03/02 A2967 RMK A01 T00340021  RH  091%=      5-min Rain = 0
KUM1 230920Z 27014KT 03/02 A2967 RMK A01 T00340021  RH  091%=      5-min Rain = 0
KUM1 230921Z 27015KT 03/02 A2967 RMK A01 T00340021  RH  092%=      5-min Rain = 0
KUM1 230922Z 27014KT 03/02 A2967 RMK A01 T00330021  RH  092%=      5-min Rain = 0
KUM1 230923Z 27014KT 03/02 A2967 RMK A01 T00330021  RH  092%=      5-min Rain = 0.01
KUM1 230924Z 26016KT 03/02 A2967 RMK A01 T00330020  RH  091%=      5-min Rain = 0
KUM1 230925Z 26016KT 03/02 A2967 RMK A01 T00330019  RH  091%=      5-min Rain = 0
KUM1 230926Z 26015KT 03/02 A2967 RMK A01 T00320019  RH  091%=      5-min Rain = 0
KUM1 230927Z 26016KT 03/02 A2966 RMK A01 T00320019  RH  091%=      5-min Rain = 0
KUM1 230928Z 26015KT 03/02 A2966 RMK A01 T00310018  RH  091%=      5-min Rain = 0
KUM1 230929Z 26016KT 03/02 A2966 RMK A01 T00310018  RH  091%=      5-min Rain = 0.01
KUM1 230930Z 26016G21KT 03/02 A2966 RMK A01 T00310018  RH  091%=      5-min Rain = 0
KUM1 230931Z 26017KT 03/02 A2966 RMK A01 T00310017  RH  091%=      5-min Rain = 0
KUM1 230932Z 26013KT 03/02 A2966 RMK A01 T00300016  RH  091%=      5-min Rain = 0
KUM1 230933Z 25016KT 03/02 A2966 RMK A01 T00300017  RH  091%=      5-min Rain = 0
KUM1 230934Z 25015KT 03/02 A2966 RMK A01 T00290017  RH  091%=      5-min Rain = 0
KUM1 230935Z 26013KT 03/02 A2966 RMK A01 T00290017  RH  092%=      5-min Rain = 0
KUM1 230936Z 25014KT 03/02 A2966 RMK A01 T00290017  RH  092%=      5-min Rain = 0
KUM1 230937Z 26013KT 03/02 A2966 RMK A01 T00290017  RH  092%=      5-min Rain = 0
KUM1 230938Z 26012KT 03/02 A2966 RMK A01 T00280016  RH  092%=      5-min Rain = 0
KUM1 230939Z 26010KT 03/02 A2966 RMK A01 T00280017  RH  092%=      5-min Rain = 0
KUM1 230940Z 26011KT 03/02 A2965 RMK A01 T00280017  RH  093%=      5-min Rain = 0
KUM1 230941Z 26010KT 03/02 A2965 RMK A01 T00280017  RH  093%=      5-min Rain = 0
KUM1 230942Z 26011KT 03/02 A2965 RMK A01 T00280017  RH  093%=      5-min Rain = 0.01
KUM1 230943Z 26009KT 03/02 A2965 RMK A01 T00270017  RH  093%=      5-min Rain = 0
KUM1 230944Z 26009KT 03/02 A2964 RMK A01 T00270016  RH  093%=      5-min Rain = 0
KUM1 230945Z 26008KT 03/02 A2964 RMK A01 T00270017  RH  093%=      5-min Rain = 0
KUM1 230946Z 27009KT 03/02 A2964 RMK A01 T00270018  RH  094%=      5-min Rain = 0
KUM1 230947Z 26009KT 03/02 A2964 RMK A01 T00270017  RH  093%=      5-min Rain = 0
KUM1 230948Z 26008KT 03/02 A2964 RMK A01 T00270017  RH  093%=      5-min Rain = 0
KUM1 230949Z 26008KT 03/02 A2964 RMK A01 T00270017  RH  093%=      5-min Rain = 0
KUM1 230950Z 27007KT 03/02 A2964 RMK A01 T00270017  RH  093%=      5-min Rain = 0
KUM1 230951Z 26007KT 03/02 A2964 RMK A01 T00260017  RH  094%=      5-min Rain = 0
KUM1 230952Z 26007KT 03/02 A2964 RMK A01 T00260017  RH  094%=      5-min Rain = 0
KUM1 230953Z 26007KT 03/02 A2964 RMK A01 T00260017  RH  093%=      5-min Rain = 0
KUM1 230954Z 25007KT 03/02 A2964 RMK A01 T00260017  RH  093%=      5-min Rain = 0
KUM1 230955Z 25006KT 03/02 A2964 RMK A01 T00260017  RH  094%=      5-min Rain = 0
KUM1 230956Z 25006KT 03/02 A2964 RMK A01 T00260018  RH  094%=      5-min Rain = 0
KUM1 230957Z 25007KT 03/02 A2964 RMK A01 T00260018  RH  094%=      5-min Rain = 0
KUM1 230958Z 25007KT 03/02 A2963 RMK A01 T00260018  RH  094%=      5-min Rain = 0
KUM1 230959Z 25006KT 03/02 A2963 RMK A01 T00260017  RH  094%=      5-min Rain = 0
KUM1 231000Z 25005KT 03/02 A2963 RMK A01 T00260017  RH  093%=      5-min Rain = 0
KUM1 231001Z 25006KT 03/02 A2963 RMK A01 T00260017  RH  093%=      5-min Rain = 0
KUM1 231002Z 25005KT 03/02 A2963 RMK A01 T00260016  RH  093%=      5-min Rain = 0
KUM1 231003Z 25005KT 03/02 A2963 RMK A01 T00260016  RH  093%=      5-min Rain = 0
KUM1 231004Z 26006KT 03/02 A2963 RMK A01 T00260016  RH  093%=      5-min Rain = 0
KUM1 231005Z 26006KT 03/02 A2963 RMK A01 T00260016  RH  093%=      5-min Rain = 0
KUM1 231006Z 26006KT 03/02 A2962 RMK A01 T00260016  RH  094%=      5-min Rain = 0
KUM1 231007Z 27006KT 03/02 A2962 RMK A01 T00260017  RH  094%=      5-min Rain = 0
KUM1 231008Z 27005KT 03/02 A2962 RMK A01 T00250016  RH  094%=      5-min Rain = 0
KUM1 231009Z 27005KT 03/02 A2962 RMK A01 T00250017  RH  094%=      5-min Rain = 0
KUM1 231010Z 27006KT 03/02 A2962 RMK A01 T00250017  RH  094%=      5-min Rain = 0
KUM1 231011Z 27006KT 03/02 A2962 RMK A01 T00250016  RH  094%=      5-min Rain = 0
KUM1 231012Z 27005KT 03/02 A2962 RMK A01 T00250016  RH  094%=      5-min Rain = 0
KUM1 231013Z 27006KT 03/02 A2962 RMK A01 T00250016  RH  094%=      5-min Rain = 0
KUM1 231014Z 27006KT 03/02 A2962 RMK A01 T00250017  RH  094%=      5-min Rain = 0
KUM1 231015Z 27006KT 03/02 A2962 RMK A01 T00250017  RH  094%=      5-min Rain = 0
KUM1 231016Z 27005KT 02/02 A2962 RMK A01 T00240016  RH  094%=      5-min Rain = 0
KUM1 231017Z 27006KT 02/02 A2962 RMK A01 T00240016  RH  094%=      5-min Rain = 0
KUM1 231018Z 26006KT 03/02 A2962 RMK A01 T00250017  RH  095%=      5-min Rain = 0
KUM1 231019Z 26006KT 02/02 A2962 RMK A01 T00240016  RH  095%=      5-min Rain = 0
KUM1 231020Z 26006KT 02/02 A2962 RMK A01 T00240017  RH  095%=      5-min Rain = 0
KUM1 231021Z 26006KT 02/02 A2962 RMK A01 T00240017  RH  095%=      5-min Rain = 0
KUM1 231022Z 26005KT 03/02 A2962 RMK A01 T00250017  RH  095%=      5-min Rain = 0
KUM1 231023Z 26006KT 02/02 A2962 RMK A01 T00240017  RH  095%=      5-min Rain = 0
KUM1 231024Z 25006KT 03/02 A2962 RMK A01 T00250017  RH  095%=      5-min Rain = 0
KUM1 231025Z 25006KT 02/02 A2962 RMK A01 T00240017  RH  095%=      5-min Rain = 0
KUM1 231026Z 25005KT 02/02 A2962 RMK A01 T00240017  RH  095%=      5-min Rain = 0
KUM1 231027Z 25006KT 02/02 A2962 RMK A01 T00240017  RH  095%=      5-min Rain = 0
KUM1 231028Z 25007KT 02/02 A2962 RMK A01 T00240017  RH  095%=      5-min Rain = 0
KUM1 231029Z 25007KT 02/02 A2962 RMK A01 T00240017  RH  095%=      5-min Rain = 0
KUM1 231030Z 25006KT 02/02 A2962 RMK A01 T00240017  RH  095%=      5-min Rain = 0
KUM1 231031Z 25006KT 02/02 A2962 RMK A01 T00240016  RH  095%=      5-min Rain = 0
KUM1 231032Z 25007KT 03/02 A2962 RMK A01 T00250017  RH  095%=      5-min Rain = 0
KUM1 231033Z 25006KT 02/02 A2962 RMK A01 T00240017  RH  095%=      5-min Rain = 0
KUM1 231034Z 25006KT 02/02 A2962 RMK A01 T00240016  RH  095%=      5-min Rain = 0
KUM1 231035Z 25007KT 02/02 A2962 RMK A01 T00240017  RH  095%=      5-min Rain = 0
KUM1 231036Z 24007KT 02/02 A2962 RMK A01 T00240017  RH  095%=      5-min Rain = 0
KUM1 231037Z 24005KT 03/02 A2962 RMK A01 T00250017  RH  095%=      5-min Rain = 0
KUM1 231038Z 24005KT 02/02 A2962 RMK A01 T00240017  RH  095%=      5-min Rain = 0
KUM1 231039Z 24005KT 02/02 A2961 RMK A01 T00240017  RH  095%=      5-min Rain = 0
KUM1 231040Z 24006KT 03/02 A2961 RMK A01 T00250017  RH  095%=      5-min Rain = 0
KUM1 231041Z 25006KT 02/02 A2961 RMK A01 T00240017  RH  095%=      5-min Rain = 0
KUM1 231042Z 25007KT 02/02 A2961 RMK A01 T00240017  RH  095%=      5-min Rain = 0
KUM1 231043Z 24007KT 02/02 A2961 RMK A01 T00240017  RH  095%=      5-min Rain = 0
KUM1 231044Z 25007KT 02/02 A2961 RMK A01 T00240017  RH  095%=      5-min Rain = 0
KUM1 231045Z 24007KT 02/02 A2961 RMK A01 T00240016  RH  095%=      5-min Rain = 0
KUM1 231046Z 24006KT 02/02 A2961 RMK A01 T00240017  RH  095%=      5-min Rain = 0
KUM1 231047Z 24006KT 02/02 A2961 RMK A01 T00240017  RH  095%=      5-min Rain = 0
KUM1 231048Z 24007KT 02/02 A2961 RMK A01 T00240017  RH  095%=      5-min Rain = 0
KUM1 231049Z 24006KT 02/02 A2961 RMK A01 T00240016  RH  095%=      5-min Rain = 0
KUM1 231050Z 24007KT 02/02 A2961 RMK A01 T00230016  RH  095%=      5-min Rain = 0
KUM1 231051Z 23006KT 02/02 A2961 RMK A01 T00230016  RH  095%=      5-min Rain = 0
KUM1 231052Z 23007KT 02/02 A2961 RMK A01 T00230015  RH  095%=      5-min Rain = 0
KUM1 231053Z 23007KT 02/02 A2961 RMK A01 T00230015  RH  095%=      5-min Rain = 0
KUM1 231054Z 23006KT 02/02 A2961 RMK A01 T00230015  RH  095%=      5-min Rain = 0
KUM1 231055Z 23007KT 02/02 A2961 RMK A01 T00230015  RH  094%=      5-min Rain = 0
KUM1 231056Z 23007KT 02/01 A2961 RMK A01 T00230014  RH  094%=      5-min Rain = 0
KUM1 231057Z 23006KT 02/01 A2961 RMK A01 T00230014  RH  094%=      5-min Rain = 0
KUM1 231058Z 23005KT 02/01 A296 RMK A01 T00230014  RH  094%=      5-min Rain = 0
KUM1 231059Z 23005KT 02/01 A296 RMK A01 T00220014  RH  094%=      5-min Rain = 0
KUM1 231100Z 22006KT 02/01 A296 RMK A01 T00220014  RH  095%=      5-min Rain = 0
KUM1 231101Z 22007KT 02/01 A296 RMK A01 T00220014  RH  095%=      5-min Rain = 0
KUM1 231102Z 23006KT 02/01 A296 RMK A01 T00220014  RH  095%=      5-min Rain = 0
KUM1 231103Z 23006KT 02/01 A296 RMK A01 T00220014  RH  095%=      5-min Rain = 0
KUM1 231104Z 23008KT 02/01 A296 RMK A01 T00220014  RH  094%=      5-min Rain = 0
KUM1 231105Z 23006KT 02/01 A296 RMK A01 T00230014  RH  094%=      5-min Rain = 0
KUM1 231106Z 23009KT 02/01 A296 RMK A01 T00230014  RH  094%=      5-min Rain = 0
KUM1 231107Z 23009KT 02/01 A296 RMK A01 T00240014  RH  094%=      5-min Rain = 0
KUM1 231108Z 22010KT 02/01 A296 RMK A01 T00240014  RH  093%=      5-min Rain = 0
KUM1 231109Z 23011KT 03/01 A296 RMK A01 T00250014  RH  093%=      5-min Rain = 0
KUM1 231110Z 23011KT 03/01 A296 RMK A01 T00250014  RH  092%=      5-min Rain = 0
KUM1 231111Z 23008KT 03/01 A296 RMK A01 T00250014  RH  092%=      5-min Rain = 0
KUM1 231112Z 23011G16KT 03/01 A296 RMK A01 T00250014  RH  093%=      5-min Rain = 0
KUM1 231113Z 23014G19KT 03/02 A296 RMK A01 T00260015  RH  092%=      5-min Rain = 0
KUM1 231114Z 24014KT 03/02 A296 RMK A01 T00270015  RH  092%=      5-min Rain = 0
KUM1 231115Z 24016G21KT 03/01 A296 RMK A01 T00270014  RH  091%=      5-min Rain = 0
KUM1 231116Z 25019KT 03/01 A296 RMK A01 T00270013  RH  091%=      5-min Rain = 0.01
KUM1 231117Z 24021KT 03/01 A296 RMK A01 T00270012  RH  089%=      5-min Rain = 0
KUM1 231118Z 24015G20KT 03/01 A296 RMK A01 T00280010  RH  088%=      5-min Rain = 0
KUM1 231119Z 24013KT 03/01 A296 RMK A01 T00270009  RH  088%=      5-min Rain = 0
KUM1 231120Z 24017KT 03/01 A296 RMK A01 T00280009  RH  088%=      5-min Rain = 0
KUM1 231121Z 23018KT 03/01 A296 RMK A01 T00280008  RH  087%=      5-min Rain = 0
KUM1 231122Z 23016KT 03/01 A296 RMK A01 T00270007  RH  086%=      5-min Rain = 0
KUM1 231123Z 23017KT 03/01 A296 RMK A01 T00270007  RH  087%=      5-min Rain = 0
KUM1 231124Z 23019KT 03/01 A296 RMK A01 T00280008  RH  087%=      5-min Rain = 0
KUM1 231125Z 23018G23KT 03/01 A296 RMK A01 T00280008  RH  087%=      5-min Rain = 0
KUM1 231126Z 23018G23KT 03/01 A296 RMK A01 T00270008  RH  087%=      5-min Rain = 0
KUM1 231127Z 23016G21KT 03/01 A296 RMK A01 T00270007  RH  087%=      5-min Rain = 0
KUM1 231128Z 23016G21KT 03/01 A296 RMK A01 T00260006  RH  086%=      5-min Rain = 0
KUM1 231129Z 23018KT 03/01 A296 RMK A01 T00260005  RH  086%=      5-min Rain = 0
KUM1 231130Z 24016KT 03/00 A296 RMK A01 T00250004  RH  086%=      5-min Rain = 0
KUM1 231131Z 23017KT 03/00 A296 RMK A01 T00250004  RH  086%=      5-min Rain = 0
KUM1 231132Z 24018KT 02/00 A296 RMK A01 T00240003  RH  086%=      5-min Rain = 0
KUM1 231133Z 24017KT 02/00 A296 RMK A01 T00240003  RH  086%=      5-min Rain = 0
KUM1 231134Z 24017KT 02/00 A296 RMK A01 T00230002  RH  086%=      5-min Rain = 0
KUM1 231135Z 24018KT 02/00 A296 RMK A01 T00230002  RH  086%=      5-min Rain = 0
KUM1 231136Z 24018KT 02/00 A296 RMK A01 T00230002  RH  086%=      5-min Rain = 0
KUM1 231137Z 23017KT 02/00 A296 RMK A01 T00230002  RH  086%=      5-min Rain = 0
KUM1 231138Z 23018KT 02/00 A296 RMK A01 T00230002  RH  086%=      5-min Rain = 0
KUM1 231139Z 24016KT 02/00 A296 RMK A01 T00230002  RH  086%=      5-min Rain = 0
KUM1 231140Z 24019KT 02/00 A296 RMK A01 T00220001  RH  086%=      5-min Rain = 0
KUM1 231141Z 24015G20KT 02/00 A296 RMK A01 T00220001  RH  086%=      5-min Rain = 0
KUM1 231142Z 24016KT 02/00 A296 RMK A01 T00220001  RH  086%=      5-min Rain = 0
KUM1 231143Z 24018KT 02/00 A296 RMK A01 T00220002  RH  087%=      5-min Rain = 0
KUM1 231144Z 24017KT 02/00 A296 RMK A01 T00220001  RH  086%=      5-min Rain = 0
KUM1 231145Z 24016KT 02/00 A296 RMK A01 T00220001  RH  086%=      5-min Rain = 0
KUM1 231146Z 24015KT 02/00 A296 RMK A01 T00210001  RH  087%=      5-min Rain = 0
KUM1 231147Z 24015KT 02/00 A296 RMK A01 T00210002  RH  087%=      5-min Rain = 0
KUM1 231148Z 24014KT 02/00 A296 RMK A01 T00210002  RH  087%=      5-min Rain = 0
KUM1 231149Z 24016KT 02/00 A296 RMK A01 T00210002  RH  087%=      5-min Rain = 0
KUM1 231150Z 24016G22KT 02/00 A296 RMK A01 T00210001  RH  087%=      5-min Rain = 0
KUM1 231151Z 24015KT 02/00 A296 RMK A01 T00210001  RH  087%=      5-min Rain = 0
KUM1 231152Z 24015KT 02/00 A296 RMK A01 T00210001  RH  087%=      5-min Rain = 0
KUM1 231153Z 24014KT 02/00 A296 RMK A01 T00210001  RH  087%=      5-min Rain = 0
KUM1 231154Z 24016G21KT 02/00 A296 RMK A01 T00210001  RH  087%=      5-min Rain = 0
KUM1 231155Z 24016G21KT 02/00 A296 RMK A01 T00210001  RH  087%=      5-min Rain = 0
KUM1 231156Z 24016G21KT 02/00 A296 RMK A01 T00210001  RH  087%=      5-min Rain = 0
KUM1 231157Z 24016KT 02/00 A296 RMK A01 T00210001  RH  087%=      5-min Rain = 0
KUM1 231158Z 24016KT 02/00 A296 RMK A01 T00210000  RH  086%=      5-min Rain = 0
KUM1 231159Z 24016KT 02/00 A296 RMK A01 T00210001  RH  086%=      5-min Rain = 0
KUM1 231200Z 24016G21KT 02/00 A296 RMK A01 T002100-0  RH  086%=      5-min Rain = 0
KUM1 231201Z 23016KT 02/00 A296 RMK A01 T002200-0  RH  086%=      5-min Rain = 0
KUM1 231202Z 24015G20KT 02/00 A296 RMK A01 T002200-0  RH  085%=      5-min Rain = 0
KUM1 231203Z 24018KT 02/M00 A2959 RMK A01 T00221001  RH  085%=      5-min Rain = 0
KUM1 231204Z 24019KT 02/M00 A2959 RMK A01 T00221002  RH  085%=      5-min Rain = 0
KUM1 231205Z 24017KT 02/M00 A2959 RMK A01 T00221002  RH  084%=      5-min Rain = 0
KUM1 231206Z 24017G23KT 02/M00 A2959 RMK A01 T00221002  RH  084%=      5-min Rain = 0
KUM1 231207Z 24018G23KT 02/M00 A2959 RMK A01 T00221002  RH  084%=      5-min Rain = 0
KUM1 231208Z 24017KT 02/M00 A2959 RMK A01 T00221002  RH  084%=      5-min Rain = 0
KUM1 231209Z 24018KT 02/M00 A2959 RMK A01 T00221003  RH  084%=      5-min Rain = 0
KUM1 231210Z 24017KT 02/M00 A2959 RMK A01 T00221003  RH  084%=      5-min Rain = 0
KUM1 231211Z 24017KT 02/M00 A2959 RMK A01 T00221004  RH  083%=      5-min Rain = 0
KUM1 231212Z 24015KT 02/M00 A296 RMK A01 T00221004  RH  083%=      5-min Rain = 0
KUM1 231213Z 23018G23KT 02/M01 A2959 RMK A01 T00211005  RH  083%=      5-min Rain = 0
KUM1 231214Z 23018G24KT 02/M01 A2959 RMK A01 T00211007  RH  082%=      5-min Rain = 0
KUM1 231215Z 24018G23KT 02/M01 A296 RMK A01 T00221007  RH  081%=      5-min Rain = 0
KUM1 231216Z 24018KT 02/M01 A296 RMK A01 T00211008  RH  081%=      5-min Rain = 0
KUM1 231217Z 24019G24KT 02/M01 A296 RMK A01 T00211009  RH  080%=      5-min Rain = 0
KUM1 231218Z 24020KT 02/M01 A2959 RMK A01 T00211010  RH  080%=      5-min Rain = 0
KUM1 231219Z 24021G26KT 02/M01 A2959 RMK A01 T00211012  RH  079%=      5-min Rain = 0
KUM1 231220Z 23019G24KT 02/M01 A2959 RMK A01 T00211012  RH  078%=      5-min Rain = 0
KUM1 231221Z 23019G25KT 02/M01 A2959 RMK A01 T00211013  RH  078%=      5-min Rain = 0
KUM1 231222Z 23021KT 02/M01 A2959 RMK A01 T00211013  RH  078%=      5-min Rain = 0
KUM1 231223Z 23019G24KT 02/M01 A2959 RMK A01 T00201014  RH  078%=      5-min Rain = 0
KUM1 231224Z 23020G26KT 02/M02 A2959 RMK A01 T00201015  RH  078%=      5-min Rain = 0
KUM1 231225Z 23021G27KT 02/M02 A2959 RMK A01 T00191016  RH  077%=      5-min Rain = 0
KUM1 231226Z 23020G25KT 02/M02 A2959 RMK A01 T00191017  RH  077%=      5-min Rain = 0
KUM1 231227Z 23022KT 02/M02 A2959 RMK A01 T00191018  RH  076%=      5-min Rain = 0
KUM1 231228Z 23021G26KT 02/M02 A2959 RMK A01 T00191019  RH  076%=      5-min Rain = 0
KUM1 231229Z 24024G29KT 02/M02 A2959 RMK A01 T00191020  RH  075%=      5-min Rain = 0
KUM1 231230Z 24024G29KT 02/M02 A2959 RMK A01 T00191022  RH  074%=      5-min Rain = 0
KUM1 231231Z 24021G28KT 02/M02 A2959 RMK A01 T00181023  RH  074%=      5-min Rain = 0
KUM1 231232Z 24022G28KT 02/M02 A2959 RMK A01 T00181023  RH  074%=      5-min Rain = 0
KUM1 231233Z 24020G25KT 02/M02 A2959 RMK A01 T00181024  RH  074%=      5-min Rain = 0
KUM1 231234Z 24023G28KT 02/M02 A2959 RMK A01 T00171024  RH  074%=      5-min Rain = 0
KUM1 231235Z 24019G24KT 02/M03 A2959 RMK A01 T00171025  RH  074%=      5-min Rain = 0
KUM1 231236Z 24022KT 02/M03 A2959 RMK A01 T00161025  RH  074%=      5-min Rain = 0
KUM1 231237Z 24019G24KT 02/M03 A2959 RMK A01 T00161025  RH  074%=      5-min Rain = 0
KUM1 231238Z 24021G26KT 02/M03 A2959 RMK A01 T00151025  RH  074%=      5-min Rain = 0
KUM1 231239Z 24020G25KT 02/M03 A2959 RMK A01 T00151026  RH  074%=      5-min Rain = 0
KUM1 231240Z 24019G25KT 01/M03 A2959 RMK A01 T00141026  RH  075%=      5-min Rain = 0
KUM1 231241Z 24017KT 01/M03 A2959 RMK A01 T00131025  RH  076%=      5-min Rain = 0
KUM1 231242Z 24018KT 01/M03 A2959 RMK A01 T00121025  RH  076%=      5-min Rain = 0
KUM1 231243Z 24019KT 01/M03 A2959 RMK A01 T00121025  RH  077%=      5-min Rain = 0
KUM1 231244Z 24020G27KT 01/M03 A2959 RMK A01 T00111025  RH  077%=      5-min Rain = 0
KUM1 231245Z 24020KT 01/M03 A2959 RMK A01 T00111025  RH  077%=      5-min Rain = 0
KUM1 231246Z 24018G23KT 01/M03 A2959 RMK A01 T00111026  RH  077%=      5-min Rain = 0
KUM1 231247Z 24019KT 01/M03 A2959 RMK A01 T00111025  RH  077%=      5-min Rain = 0
KUM1 231248Z 24018KT 01/M03 A2959 RMK A01 T00101026  RH  077%=      5-min Rain = 0
KUM1 231249Z 23020KT 01/M03 A2959 RMK A01 T00111025  RH  077%=      5-min Rain = 0
KUM1 231250Z 23019KT 01/M03 A2959 RMK A01 T00101027  RH  076%=      5-min Rain = 0
KUM1 231251Z 23020G25KT 01/M03 A2959 RMK A01 T00101027  RH  076%=      5-min Rain = 0
KUM1 231252Z 24022G27KT 01/M03 A2959 RMK A01 T00101027  RH  076%=      5-min Rain = 0
KUM1 231253Z 24020G25KT 01/M03 A2959 RMK A01 T00101028  RH  075%=      5-min Rain = 0
KUM1 231254Z 24021KT 01/M03 A2959 RMK A01 T00101028  RH  075%=      5-min Rain = 0
KUM1 231255Z 24019G24KT 01/M03 A2959 RMK A01 T00111028  RH  075%=      5-min Rain = 0
KUM1 231256Z 24018KT 01/M03 A2959 RMK A01 T00101029  RH  075%=      5-min Rain = 0
KUM1 231257Z 24019KT 01/M03 A2959 RMK A01 T00101028  RH  076%=      5-min Rain = 0
KUM1 231258Z 24019KT 01/M03 A2959 RMK A01 T00091028  RH  076%=      5-min Rain = 0
KUM1 231259Z 24017G22KT 01/M03 A2959 RMK A01 T00091028  RH  076%=      5-min Rain = 0
KUM1 231300Z 24020KT 01/M03 A2959 RMK A01 T00091027  RH  077%=      5-min Rain = 0
KUM1 231301Z 23020KT 01/M03 A2959 RMK A01 T00091027  RH  077%=      5-min Rain = 0
KUM1 231302Z 23021G26KT 01/M03 A2959 RMK A01 T00091028  RH  077%=      5-min Rain = 0
KUM1 231303Z 23021KT 01/M03 A2958 RMK A01 T00091028  RH  076%=      5-min Rain = 0
KUM1 231304Z 23021G26KT 01/M03 A2958 RMK A01 T00091029  RH  076%=      5-min Rain = 0
KUM1 231305Z 23019KT 01/M03 A2958 RMK A01 T00091029  RH  076%=      5-min Rain = 0
KUM1 231306Z 23022KT 01/M03 A2958 RMK A01 T00091028  RH  076%=      5-min Rain = 0
KUM1 231307Z 23021G26KT 01/M03 A2958 RMK A01 T00091029  RH  076%=      5-min Rain = 0
KUM1 231308Z 23019KT 01/M03 A2958 RMK A01 T00091029  RH  076%=      5-min Rain = 0
KUM1 231309Z 23021KT 01/M03 A2958 RMK A01 T00091030  RH  076%=      5-min Rain = 0
KUM1 231310Z 23019KT 01/M03 A2958 RMK A01 T00091030  RH  075%=      5-min Rain = 0
KUM1 231311Z 23020KT 01/M03 A2958 RMK A01 T00091030  RH  075%=      5-min Rain = 0
KUM1 231312Z 23019KT 01/M03 A2958 RMK A01 T00081030  RH  076%=      5-min Rain = 0
KUM1 231313Z 23020KT 01/M03 A2958 RMK A01 T00091031  RH  075%=      5-min Rain = 0
KUM1 231314Z 24019G24KT 01/M03 A2958 RMK A01 T00091031  RH  075%=      5-min Rain = 0
KUM1 231315Z 24016KT 01/M03 A2958 RMK A01 T00091031  RH  075%=      5-min Rain = 0
KUM1 231316Z 24019KT 01/M03 A2958 RMK A01 T00081031  RH  075%=      5-min Rain = 0
KUM1 231317Z 24020KT 01/M03 A2958 RMK A01 T00081032  RH  075%=      5-min Rain = 0
KUM1 231318Z 24021G26KT 01/M03 A2958 RMK A01 T00081032  RH  074%=      5-min Rain = 0
KUM1 231319Z 24018KT 01/M03 A2958 RMK A01 T00081032  RH  074%=      5-min Rain = 0
KUM1 231320Z 24018KT 01/M03 A2958 RMK A01 T00091032  RH  075%=      5-min Rain = 0
KUM1 231321Z 24019G27KT 01/M03 A2958 RMK A01 T00081031  RH  075%=      5-min Rain = 0
KUM1 231322Z 24023G28KT 01/M03 A2958 RMK A01 T00081033  RH  074%=      5-min Rain = 0
KUM1 231323Z 24021G26KT 01/M03 A2958 RMK A01 T00091034  RH  073%=      5-min Rain = 0
KUM1 231324Z 24022G27KT 01/M03 A2957 RMK A01 T00091034  RH  073%=      5-min Rain = 0
KUM1 231325Z 24023KT 01/M03 A2957 RMK A01 T00091034  RH  073%=      5-min Rain = 0
KUM1 231326Z 24024KT 01/M04 A2957 RMK A01 T00091035  RH  072%=      5-min Rain = 0
KUM1 231327Z 24022KT 01/M04 A2957 RMK A01 T00091035  RH  072%=      5-min Rain = 0
KUM1 231328Z 24021G28KT 01/M03 A2957 RMK A01 T00091034  RH  073%=      5-min Rain = 0
KUM1 231329Z 24022G27KT 01/M03 A2957 RMK A01 T00091034  RH  073%=      5-min Rain = 0
KUM1 231330Z 24021G28KT 01/M04 A2957 RMK A01 T00091035  RH  073%=      5-min Rain = 0
KUM1 231331Z 24021KT 01/M03 A2957 RMK A01 T00091034  RH  073%=      5-min Rain = 0
KUM1 231332Z 24021G27KT 01/M03 A2957 RMK A01 T00091034  RH  073%=      5-min Rain = 0
KUM1 231333Z 24022KT 01/M03 A2957 RMK A01 T00091034  RH  073%=      5-min Rain = 0
KUM1 231334Z 24019KT 01/M03 A2957 RMK A01 T00081034  RH  074%=      5-min Rain = 0
KUM1 231335Z 24021G26KT 01/M03 A2957 RMK A01 T00081033  RH  074%=      5-min Rain = 0
KUM1 231336Z 24023G29KT 01/M03 A2957 RMK A01 T00081033  RH  074%=      5-min Rain = 0
KUM1 231337Z 24020G25KT 01/M03 A2957 RMK A01 T00081034  RH  074%=      5-min Rain = 0
KUM1 231338Z 24019KT 01/M03 A2957 RMK A01 T00081033  RH  074%=      5-min Rain = 0
KUM1 231339Z 24021KT 01/M03 A2957 RMK A01 T00081033  RH  074%=      5-min Rain = 0
KUM1 231340Z 24020G28KT 01/M04 A2957 RMK A01 T00081035  RH  073%=      5-min Rain = 0
KUM1 231341Z 24024G29KT 01/M04 A2957 RMK A01 T00081035  RH  073%=      5-min Rain = 0
KUM1 231342Z 24023KT 01/M04 A2957 RMK A01 T00091036  RH  072%=      5-min Rain = 0
KUM1 231343Z 24022KT 01/M04 A2957 RMK A01 T00091036  RH  072%=      5-min Rain = 0
KUM1 231344Z 24020G25KT 01/M04 A2957 RMK A01 T00091036  RH  072%=      5-min Rain = 0
KUM1 231345Z 24019KT 01/M04 A2957 RMK A01 T00091035  RH  072%=      5-min Rain = 0
KUM1 231346Z 24021G26KT 01/M04 A2957 RMK A01 T00091035  RH  072%=      5-min Rain = 0
KUM1 231347Z 24021G26KT 01/M04 A2957 RMK A01 T00091036  RH  072%=      5-min Rain = 0
KUM1 231348Z 24021G27KT 01/M04 A2957 RMK A01 T00091036  RH  072%=      5-min Rain = 0
KUM1 231349Z 24020KT 01/M04 A2957 RMK A01 T00091036  RH  072%=      5-min Rain = 0
KUM1 231350Z 24022G27KT 01/M04 A2957 RMK A01 T00101035  RH  072%=      5-min Rain = 0
KUM1 231351Z 24023G29KT 01/M04 A2957 RMK A01 T00101036  RH  071%=      5-min Rain = 0
KUM1 231352Z 24024G31KT 01/M04 A2956 RMK A01 T00101037  RH  071%=      5-min Rain = 0
KUM1 231353Z 24023KT 01/M04 A2956 RMK A01 T00101037  RH  071%=      5-min Rain = 0
KUM1 231354Z 24024KT 01/M04 A2956 RMK A01 T00111037  RH  071%=      5-min Rain = 0
KUM1 231355Z 24022KT 01/M04 A2956 RMK A01 T00111036  RH  071%=      5-min Rain = 0
KUM1 231356Z 24022G27KT 01/M04 A2957 RMK A01 T00111036  RH  071%=      5-min Rain = 0
KUM1 231357Z 24025KT 01/M04 A2957 RMK A01 T00111035  RH  071%=      5-min Rain = 0
KUM1 231358Z 24023G30KT 01/M04 A2957 RMK A01 T00111036  RH  071%=      5-min Rain = 0
KUM1 231359Z 24025G31KT 01/M04 A2957 RMK A01 T00111035  RH  071%=      5-min Rain = 0
KUM1 231400Z 24028G33KT 01/M04 A2957 RMK A01 T00121036  RH  070%=      5-min Rain = 0
KUM1 231401Z 24024G30KT 01/M04 A2957 RMK A01 T00121036  RH  070%=      5-min Rain = 0
KUM1 231402Z 24025KT 01/M04 A2957 RMK A01 T00121036  RH  070%=      5-min Rain = 0
KUM1 231403Z 25025KT 01/M04 A2957 RMK A01 T00121036  RH  070%=      5-min Rain = 0
KUM1 231404Z 24024KT 01/M04 A2957 RMK A01 T00121035  RH  071%=      5-min Rain = 0
KUM1 231405Z 24025KT 01/M04 A2957 RMK A01 T00121035  RH  071%=      5-min Rain = 0
KUM1 231406Z 24025KT 01/M04 A2957 RMK A01 T00121035  RH  071%=      5-min Rain = 0
KUM1 231407Z 24022G27KT 01/M03 A2957 RMK A01 T00121034  RH  071%=      5-min Rain = 0
KUM1 231408Z 24023KT 01/M03 A2957 RMK A01 T00111033  RH  072%=      5-min Rain = 0
KUM1 231409Z 24024G31KT 01/M03 A2957 RMK A01 T00111034  RH  072%=      5-min Rain = 0
KUM1 231410Z 24024G33KT 01/M03 A2957 RMK A01 T00121033  RH  072%=      5-min Rain = 0
KUM1 231411Z 24024G30KT 01/M03 A2957 RMK A01 T00121033  RH  072%=      5-min Rain = 0
KUM1 231412Z 24027KT 01/M03 A2957 RMK A01 T00131034  RH  071%=      5-min Rain = 0
KUM1 231413Z 24028G33KT 01/M04 A2957 RMK A01 T00131035  RH  070%=      5-min Rain = 0
KUM1 231414Z 24024G29KT 01/M03 A2957 RMK A01 T00141034  RH  070%=      5-min Rain = 0
KUM1 231415Z 24023KT 01/M03 A2957 RMK A01 T00141033  RH  071%=      5-min Rain = 0
KUM1 231416Z 24022G28KT 01/M03 A2957 RMK A01 T00141033  RH  071%=      5-min Rain = 0
KUM1 231417Z 24022G27KT 01/M03 A2957 RMK A01 T00141032  RH  072%=      5-min Rain = 0
KUM1 231418Z 24023G28KT 01/M03 A2957 RMK A01 T00141032  RH  072%=      5-min Rain = 0
KUM1 231419Z 23024KT 01/M03 A2957 RMK A01 T00141033  RH  071%=      5-min Rain = 0
KUM1 231420Z 24021G26KT 01/M03 A2957 RMK A01 T00141033  RH  071%=      5-min Rain = 0
KUM1 231421Z 24020G25KT 01/M03 A2958 RMK A01 T00141031  RH  072%=      5-min Rain = 0
KUM1 231422Z 24022KT 01/M03 A2958 RMK A01 T00141031  RH  072%=      5-min Rain = 0
KUM1 231423Z 24021KT 02/M03 A2958 RMK A01 T00151031  RH  072%=      5-min Rain = 0
KUM1 231424Z 23020G25KT 02/M03 A2958 RMK A01 T00161030  RH  072%=      5-min Rain = 0
KUM1 231425Z 24021G27KT 02/M03 A2958 RMK A01 T00161029  RH  072%=      5-min Rain = 0
KUM1 231426Z 23023KT 02/M03 A2958 RMK A01 T00151030  RH  072%=      5-min Rain = 0
KUM1 231427Z 23022G29KT 02/M03 A2958 RMK A01 T00151031  RH  072%=      5-min Rain = 0
KUM1 231428Z 24020G26KT 02/M03 A2958 RMK A01 T00151030  RH  072%=      5-min Rain = 0
KUM1 231429Z 23018G24KT 01/M03 A2958 RMK A01 T00141029  RH  073%=      5-min Rain = 0
KUM1 231430Z 23021KT 01/M03 A2958 RMK A01 T00131029  RH  073%=      5-min Rain = 0
KUM1 231431Z 23021G26KT 01/M03 A2958 RMK A01 T00131029  RH  073%=      5-min Rain = 0
KUM1 231432Z 23022G27KT 01/M03 A2958 RMK A01 T00131029  RH  073%=      5-min Rain = 0
KUM1 231433Z 23020G25KT 01/M03 A2958 RMK A01 T00131030  RH  073%=      5-min Rain = 0
KUM1 231434Z 23019KT 01/M03 A2958 RMK A01 T00141029  RH  074%=      5-min Rain = 0
KUM1 231435Z 23022G28KT 01/M03 A2958 RMK A01 T00131028  RH  074%=      5-min Rain = 0
KUM1 231436Z 23021KT 01/M03 A2958 RMK A01 T00131029  RH  073%=      5-min Rain = 0
KUM1 231437Z 24020G26KT 01/M03 A2958 RMK A01 T00131029  RH  073%=      5-min Rain = 0
KUM1 231438Z 23022KT 01/M03 A2958 RMK A01 T00141029  RH  073%=      5-min Rain = 0
KUM1 231439Z 24022KT 01/M03 A2958 RMK A01 T00141029  RH  073%=      5-min Rain = 0
KUM1 231440Z 24021KT 01/M03 A2958 RMK A01 T00141029  RH  073%=      5-min Rain = 0
KUM1 231441Z 24020G27KT 01/M03 A2958 RMK A01 T00141028  RH  073%=      5-min Rain = 0
KUM1 231442Z 23020G25KT 02/M03 A2958 RMK A01 T00151028  RH  073%=      5-min Rain = 0
KUM1 231443Z 23022G27KT 01/M03 A2958 RMK A01 T00141028  RH  073%=      5-min Rain = 0
KUM1 231444Z 23019KT 02/M03 A2958 RMK A01 T00151028  RH  073%=      5-min Rain = 0
KUM1 231445Z 23019KT 02/M03 A2958 RMK A01 T00151027  RH  074%=      5-min Rain = 0
KUM1 231446Z 23021KT 02/M03 A2958 RMK A01 T00151026  RH  074%=      5-min Rain = 0
KUM1 231447Z 23020KT 02/M03 A2958 RMK A01 T00151026  RH  074%=      5-min Rain = 0
KUM1 231448Z 24022KT 02/M03 A2958 RMK A01 T00151026  RH  074%=      5-min Rain = 0
KUM1 231449Z 23020KT 02/M03 A2958 RMK A01 T00151027  RH  074%=      5-min Rain = 0
KUM1 231450Z 23022KT 02/M03 A2958 RMK A01 T00151027  RH  074%=      5-min Rain = 0
KUM1 231451Z 23021KT 02/M03 A2958 RMK A01 T00151026  RH  074%=      5-min Rain = 0
KUM1 231452Z 23020G27KT 02/M03 A2959 RMK A01 T00151026  RH  074%=      5-min Rain = 0
KUM1 231453Z 24020G26KT 02/M03 A2958 RMK A01 T00151026  RH  074%=      5-min Rain = 0
KUM1 231454Z 23019G27KT 02/M03 A2959 RMK A01 T00151026  RH  074%=      5-min Rain = 0
KUM1 231455Z 24021KT 02/M03 A2959 RMK A01 T00151025  RH  075%=      5-min Rain = 0
KUM1 231456Z 24021G27KT 02/M03 A2959 RMK A01 T00161025  RH  074%=      5-min Rain = 0
KUM1 231457Z 24022KT 02/M03 A2959 RMK A01 T00161025  RH  074%=      5-min Rain = 0
KUM1 231458Z 24023G29KT 02/M03 A2959 RMK A01 T00161026  RH  074%=      5-min Rain = 0
KUM1 231459Z 24020G25KT 02/M03 A2959 RMK A01 T00171026  RH  073%=      5-min Rain = 0
KUM1 231500Z 25021KT 02/M03 A2959 RMK A01 T00171025  RH  074%=      5-min Rain = 0
KUM1 231501Z 25021G27KT 02/M02 A2959 RMK A01 T00171024  RH  074%=      5-min Rain = 0
KUM1 231502Z 25023KT 02/M02 A2959 RMK A01 T00171023  RH  075%=      5-min Rain = 0
KUM1 231503Z 25022KT 02/M02 A2959 RMK A01 T00171022  RH  075%=      5-min Rain = 0
KUM1 231504Z 26026G31KT 02/M02 A2959 RMK A01 T00171019  RH  077%=      5-min Rain = 0
KUM1 231505Z 26030G36KT 02/M02 A2959 RMK A01 T00181016  RH  078%=      5-min Rain = 0
KUM1 231506Z 26028KT 02/M01 A2959 RMK A01 T00191014  RH  078%=      5-min Rain = 0
KUM1 231507Z 26032G37KT 02/M01 A2959 RMK A01 T00201014  RH  078%=      5-min Rain = 0
KUM1 231508Z 26031KT 02/M01 A2959 RMK A01 T00201014  RH  078%=      5-min Rain = 0
KUM1 231509Z 26031KT 02/M01 A2959 RMK A01 T00201014  RH  078%=      5-min Rain = 0
KUM1 231510Z 25030KT 02/M01 A2959 RMK A01 T00201014  RH  078%=      5-min Rain = 0
KUM1 231511Z 26030G36KT 02/M01 A2959 RMK A01 T00201013  RH  079%=      5-min Rain = 0
KUM1 231512Z 26029G35KT 02/M01 A2959 RMK A01 T00201011  RH  080%=      5-min Rain = 0
KUM1 231513Z 26025KT 02/M01 A2959 RMK A01 T00211010  RH  080%=      5-min Rain = 0
KUM1 231514Z 26025KT 02/M01 A2959 RMK A01 T00201009  RH  081%=      5-min Rain = 0
KUM1 231515Z 26027G32KT 02/M01 A2959 RMK A01 T00201008  RH  081%=      5-min Rain = 0
KUM1 231516Z 26027KT 02/M01 A2959 RMK A01 T00201008  RH  082%=      5-min Rain = 0
KUM1 231517Z 26026KT 02/M01 A2959 RMK A01 T00201007  RH  082%=      5-min Rain = 0
KUM1 231518Z 26025KT 02/M01 A296 RMK A01 T00201007  RH  082%=      5-min Rain = 0
KUM1 231519Z 27022KT 02/M01 A296 RMK A01 T00201006  RH  083%=      5-min Rain = 0
KUM1 231520Z 26026G32KT 02/M01 A296 RMK A01 T00211005  RH  083%=      5-min Rain = 0
KUM1 231521Z 27026G31KT 02/M00 A296 RMK A01 T00221004  RH  083%=      5-min Rain = 0
KUM1 231522Z 27022KT 02/M00 A296 RMK A01 T00221003  RH  083%=      5-min Rain = 0
KUM1 231523Z 27025KT 02/M00 A296 RMK A01 T00231002  RH  084%=      5-min Rain = 0
KUM1 231524Z 27025KT 02/M00 A296 RMK A01 T00231003  RH  083%=      5-min Rain = 0
KUM1 231525Z 27020KT 02/M00 A296 RMK A01 T00241001  RH  084%=      5-min Rain = 0
KUM1 231526Z 27024G30KT 02/00 A296 RMK A01 T00240000  RH  084%=      5-min Rain = 0
KUM1 231527Z 27027G32KT 03/00 A296 RMK A01 T00250000  RH  084%=      5-min Rain = 0
KUM1 231528Z 27024G29KT 03/00 A296 RMK A01 T00250001  RH  084%=      5-min Rain = 0
KUM1 231529Z 28024KT 03/00 A296 RMK A01 T00250002  RH  085%=      5-min Rain = 0
KUM1 231530Z 28028G33KT 03/00 A296 RMK A01 T00260003  RH  085%=      5-min Rain = 0
KUM1 231531Z 28027KT 03/00 A296 RMK A01 T00250002  RH  084%=      5-min Rain = 0
KUM1 231532Z 28030G36KT 03/00 A296 RMK A01 T00250001  RH  084%=      5-min Rain = 0
KUM1 231533Z 28027KT 02/00 A296 RMK A01 T00240001  RH  084%=      5-min Rain = 0
KUM1 231534Z 28029G35KT 03/00 A296 RMK A01 T00250002  RH  085%=      5-min Rain = 0
KUM1 231535Z 29028G33KT 02/00 A296 RMK A01 T00240002  RH  085%=      5-min Rain = 0
KUM1 231536Z 28028G34KT 02/00 A2961 RMK A01 T00240002  RH  085%=      5-min Rain = 0
KUM1 231537Z 29025KT 02/00 A2961 RMK A01 T00240003  RH  086%=      5-min Rain = 0
KUM1 231538Z 29025G30KT 03/00 A2961 RMK A01 T00250004  RH  086%=      5-min Rain = 0
KUM1 231539Z 29028KT 03/00 A2961 RMK A01 T00260003  RH  085%=      5-min Rain = 0
KUM1 231540Z 30026G35KT 03/00 A2961 RMK A01 T00270002  RH  083%=      5-min Rain = 0
KUM1 231541Z 29031KT 03/M00 A296 RMK A01 T00281002  RH  081%=      5-min Rain = 0
KUM1 231542Z 29028G33KT 03/M01 A2961 RMK A01 T00281005  RH  079%=      5-min Rain = 0
KUM1 231543Z 29028KT 03/M00 A2961 RMK A01 T00301004  RH  079%=      5-min Rain = 0
KUM1 231544Z 29027G32KT 03/M00 A2961 RMK A01 T00291004  RH  079%=      5-min Rain = 0
KUM1 231545Z 29026G32KT 03/M01 A2961 RMK A01 T00281006  RH  078%=      5-min Rain = 0
KUM1 231546Z 29034G39KT 03/M01 A2961 RMK A01 T00271006  RH  079%=      5-min Rain = 0
KUM1 231547Z 29031KT 03/M01 A2961 RMK A01 T00251008  RH  079%=      5-min Rain = 0
KUM1 231548Z 29029G35KT 02/M01 A2961 RMK A01 T00241007  RH  080%=      5-min Rain = 0
KUM1 231549Z 29030KT 02/M01 A2961 RMK A01 T00241008  RH  080%=      5-min Rain = 0
KUM1 231550Z 29029G35KT 02/M01 A2961 RMK A01 T00231008  RH  080%=      5-min Rain = 0
KUM1 231551Z 29027G34KT 02/M01 A2961 RMK A01 T00241008  RH  080%=      5-min Rain = 0
KUM1 231552Z 28028KT 02/M01 A2961 RMK A01 T00241007  RH  080%=      5-min Rain = 0
KUM1 231553Z 29024KT 02/M01 A2962 RMK A01 T00241005  RH  081%=      5-min Rain = 0
KUM1 231554Z 29025KT 02/M00 A2962 RMK A01 T00241003  RH  082%=      5-min Rain = 0
KUM1 231555Z 28024KT 02/M00 A2962 RMK A01 T00241003  RH  082%=      5-min Rain = 0
KUM1 231556Z 28029G34KT 02/M00 A2961 RMK A01 T00231004  RH  083%=      5-min Rain = 0
KUM1 231557Z 28025G30KT 02/M00 A2962 RMK A01 T00221004  RH  083%=      5-min Rain = 0
KUM1 231558Z 28030KT 02/M00 A2962 RMK A01 T00211004  RH  083%=      5-min Rain = 0
KUM1 231559Z 28028G34KT 02/M01 A2962 RMK A01 T00201006  RH  083%=      5-min Rain = 0
KUM1 231600Z 28027G32KT 02/M01 A2962 RMK A01 T00191007  RH  083%=      5-min Rain = 0
KUM1 231601Z 28028G35KT 02/M01 A2962 RMK A01 T00191006  RH  083%=      5-min Rain = 0
KUM1 231602Z 28026KT 02/M01 A2962 RMK A01 T00191006  RH  083%=      5-min Rain = 0
KUM1 231603Z 28027G35KT 02/M01 A2962 RMK A01 T00201006  RH  083%=      5-min Rain = 0
KUM1 231604Z 28029G37KT 02/M01 A2962 RMK A01 T00201007  RH  083%=      5-min Rain = 0
KUM1 231605Z 28030G35KT 02/M01 A2962 RMK A01 T00201007  RH  082%=      5-min Rain = 0
KUM1 231606Z 29030KT 02/M01 A2962 RMK A01 T00211007  RH  082%=      5-min Rain = 0
KUM1 231607Z 29032G41KT 02/M01 A2962 RMK A01 T00221007  RH  081%=      5-min Rain = 0
KUM1 231608Z 29027G32KT 02/M01 A2963 RMK A01 T00231006  RH  081%=      5-min Rain = 0
KUM1 231609Z 29032G37KT 02/M01 A2962 RMK A01 T00241006  RH  081%=      5-min Rain = 0
KUM1 231610Z 29030G37KT 02/M01 A2962 RMK A01 T00241008  RH  080%=      5-min Rain = 0
KUM1 231611Z 29033KT 02/M01 A2962 RMK A01 T00241008  RH  079%=      5-min Rain = 0
KUM1 231612Z 28032G38KT 03/M01 A2962 RMK A01 T00251007  RH  079%=      5-min Rain = 0
KUM1 231613Z 29035G41KT 03/M01 A2962 RMK A01 T00261007  RH  079%=      5-min Rain = 0
KUM1 231614Z 29035KT 03/M01 A2962 RMK A01 T00271008  RH  078%=      5-min Rain = 0
KUM1 231615Z 29034G44KT 03/M01 A2962 RMK A01 T00261009  RH  078%=      5-min Rain = 0
KUM1 231616Z 29032G37KT 03/M01 A2963 RMK A01 T00261008  RH  079%=      5-min Rain = 0
KUM1 231617Z 29027G34KT 03/M01 A2963 RMK A01 T00261005  RH  080%=      5-min Rain = 0
KUM1 231618Z 29034G41KT 03/M00 A2963 RMK A01 T00271004  RH  080%=      5-min Rain = 0
KUM1 231619Z 29033KT 03/M01 A2963 RMK A01 T00271005  RH  079%=      5-min Rain = 0
KUM1 231620Z 29032G37KT 03/M00 A2963 RMK A01 T00271004  RH  080%=      5-min Rain = 0
KUM1 231621Z 29032G38KT 03/M01 A2963 RMK A01 T00271005  RH  080%=      5-min Rain = 0
KUM1 231622Z 29035KT 03/M00 A2963 RMK A01 T00271004  RH  080%=      5-min Rain = 0
KUM1 231623Z 29036G42KT 03/M01 A2963 RMK A01 T00281006  RH  078%=      5-min Rain = 0
KUM1 231624Z 29033G40KT 03/M01 A2963 RMK A01 T00291005  RH  079%=      5-min Rain = 0
KUM1 231625Z 29036G44KT 03/M00 A2963 RMK A01 T00301004  RH  078%=      5-min Rain = 0
KUM1 231626Z 29034G39KT 03/M01 A2963 RMK A01 T00311006  RH  077%=      5-min Rain = 0
KUM1 231627Z 29032G38KT 03/M01 A2963 RMK A01 T00311005  RH  077%=      5-min Rain = 0
KUM1 231628Z 29034G41KT 03/M01 A2963 RMK A01 T00311008  RH  076%=      5-min Rain = 0
KUM1 231629Z 29033G40KT 03/M01 A2964 RMK A01 T00291010  RH  076%=      5-min Rain = 0
KUM1 231630Z 29037G42KT 03/M01 A2964 RMK A01 T00291009  RH  076%=      5-min Rain = 0
KUM1 231631Z 29032G38KT 03/M01 A2964 RMK A01 T00281010  RH  076%=      5-min Rain = 0
KUM1 231632Z 29034G43KT 03/M01 A2964 RMK A01 T00281008  RH  077%=      5-min Rain = 0
KUM1 231633Z 29036KT 03/M01 A2964 RMK A01 T00281009  RH  077%=      5-min Rain = 0
KUM1 231634Z 29034G39KT 03/M01 A2965 RMK A01 T00281009  RH  077%=      5-min Rain = 0
KUM1 231635Z 29032G37KT 03/M01 A2965 RMK A01 T00271009  RH  077%=      5-min Rain = 0
KUM1 231636Z 30036KT 03/M01 A2965 RMK A01 T00271010  RH  077%=      5-min Rain = 0
KUM1 231637Z 30031G41KT 03/M01 A2965 RMK A01 T00251012  RH  076%=      5-min Rain = 0
KUM1 231638Z 29033G39KT 03/M01 A2965 RMK A01 T00251010  RH  078%=      5-min Rain = 0
KUM1 231639Z 29037G42KT 02/M01 A2965 RMK A01 T00241011  RH  077%=      5-min Rain = 0
KUM1 231640Z 29036G42KT 02/M01 A2965 RMK A01 T00231013  RH  078%=      5-min Rain = 0
KUM1 231641Z 29033G40KT 02/M01 A2966 RMK A01 T00231011  RH  078%=      5-min Rain = 0
KUM1 231642Z 29034G39KT 02/M01 A2966 RMK A01 T00221011  RH  079%=      5-min Rain = 0
KUM1 231643Z 30036G42KT 02/M01 A2966 RMK A01 T00221010  RH  079%=      5-min Rain = 0
KUM1 231644Z 30036G43KT 02/M01 A2966 RMK A01 T00231010  RH  079%=      5-min Rain = 0
KUM1 231645Z 29034G39KT 02/M01 A2966 RMK A01 T00231010  RH  079%=      5-min Rain = 0
KUM1 231646Z 29030G36KT 02/M01 A2967 RMK A01 T00231009  RH  080%=      5-min Rain = 0
KUM1 231647Z 29031G44KT 02/M01 A2967 RMK A01 T00231007  RH  081%=      5-min Rain = 0
KUM1 231648Z 30032G42KT 02/M01 A2967 RMK A01 T00231009  RH  080%=      5-min Rain = 0
KUM1 231649Z 29031G39KT 02/M01 A2967 RMK A01 T00221009  RH  080%=      5-min Rain = 0
KUM1 231650Z 29033G39KT 02/M01 A2967 RMK A01 T00221008  RH  081%=      5-min Rain = 0
KUM1 231651Z 29030G35KT 02/M01 A2967 RMK A01 T00221008  RH  081%=      5-min Rain = 0
KUM1 231652Z 29029G34KT 02/M01 A2968 RMK A01 T00221008  RH  081%=      5-min Rain = 0
KUM1 231653Z 30031G38KT 02/M01 A2968 RMK A01 T00211009  RH  080%=      5-min Rain = 0
KUM1 231654Z 30034KT 02/M01 A2968 RMK A01 T00211009  RH  080%=      5-min Rain = 0
KUM1 231655Z 30026G31KT 02/M01 A2968 RMK A01 T00211009  RH  080%=      5-min Rain = 0
KUM1 231656Z 30034G41KT 02/M01 A2968 RMK A01 T00221007  RH  081%=      5-min Rain = 0
KUM1 231657Z 30029G34KT 02/M01 A2968 RMK A01 T00221009  RH  080%=      5-min Rain = 0
KUM1 231658Z 29031G36KT 02/M01 A2969 RMK A01 T00221008  RH  081%=      5-min Rain = 0
KUM1 231659Z 30035G42KT 02/M01 A2969 RMK A01 T00221007  RH  081%=      5-min Rain = 0
KUM1 231700Z 30032G40KT 02/M01 A2969 RMK A01 T00211008  RH  081%=      5-min Rain = 0
KUM1 231701Z 30037G44KT 02/M01 A2969 RMK A01 T00201007  RH  082%=      5-min Rain = 0
KUM1 231702Z 30033KT 02/M01 A2969 RMK A01 T00201008  RH  082%=      5-min Rain = 0
KUM1 231703Z 30029KT 02/M01 A2969 RMK A01 T00211006  RH  083%=      5-min Rain = 0
KUM1 231704Z 30033KT 02/M01 A2969 RMK A01 T00211005  RH  083%=      5-min Rain = 0
KUM1 231705Z 30033G39KT 02/M01 A297 RMK A01 T00211007  RH  082%=      5-min Rain = 0
KUM1 231706Z 31028G33KT 02/M01 A297 RMK A01 T00201008  RH  082%=      5-min Rain = 0
KUM1 231707Z 30029G37KT 02/M01 A297 RMK A01 T00201005  RH  084%=      5-min Rain = 0
KUM1 231708Z 31030G35KT 02/M01 A297 RMK A01 T00201006  RH  083%=      5-min Rain = 0
KUM1 231709Z 30031G39KT 02/M01 A2971 RMK A01 T00201005  RH  084%=      5-min Rain = 0
KUM1 231710Z 31026G32KT 02/M01 A2971 RMK A01 T00201006  RH  083%=      5-min Rain = 0
KUM1 231711Z 30027G32KT 02/M01 A2971 RMK A01 T00201005  RH  084%=      5-min Rain = 0
KUM1 231712Z 31036G41KT 02/M01 A2971 RMK A01 T00201006  RH  082%=      5-min Rain = 0
KUM1 231713Z 30031G38KT 02/M01 A2971 RMK A01 T00201008  RH  082%=      5-min Rain = 0
KUM1 231714Z 30034G40KT 02/M01 A2971 RMK A01 T00201008  RH  082%=      5-min Rain = 0
KUM1 231715Z 31036G42KT 02/M01 A2971 RMK A01 T00191007  RH  083%=      5-min Rain = 0
KUM1 231716Z 31034G39KT 02/M01 A2971 RMK A01 T00201005  RH  084%=      5-min Rain = 0
KUM1 231717Z 31031G36KT 02/M00 A2972 RMK A01 T00201004  RH  084%=      5-min Rain = 0
KUM1 231718Z 31030G37KT 02/M00 A2972 RMK A01 T00211003  RH  084%=      5-min Rain = 0
KUM1 231719Z 31031G37KT 02/M00 A2972 RMK A01 T00221002  RH  084%=      5-min Rain = 0
KUM1 231720Z 31031G37KT 02/M00 A2972 RMK A01 T00221002  RH  084%=      5-min Rain = 0
KUM1 231721Z 31030KT 02/M00 A2972 RMK A01 T00231001  RH  084%=      5-min Rain = 0
KUM1 231722Z 31030KT 02/M00 A2972 RMK A01 T00241001  RH  084%=      5-min Rain = 0
KUM1 231723Z 31030G39KT 03/M00 A2972 RMK A01 T00261001  RH  082%=      5-min Rain = 0
KUM1 231724Z 32036G41KT 03/M00 A2972 RMK A01 T00281004  RH  080%=      5-min Rain = 0
KUM1 231725Z 31035KT 03/M01 A2972 RMK A01 T00281005  RH  079%=      5-min Rain = 0
KUM1 231726Z 31032G37KT 03/M00 A2972 RMK A01 T00301004  RH  078%=      5-min Rain = 0
KUM1 231727Z 31036G42KT 03/M00 A2973 RMK A01 T00311004  RH  078%=      5-min Rain = 0
KUM1 231728Z 31039KT 03/M01 A2972 RMK A01 T00301007  RH  076%=      5-min Rain = 0
KUM1 231729Z 31039G45KT 03/M01 A2973 RMK A01 T00291010  RH  075%=      5-min Rain = 0
KUM1 231730Z 31034G43KT 03/M01 A2973 RMK A01 T00291008  RH  076%=      5-min Rain = 0
KUM1 231731Z 31035G41KT 03/M01 A2973 RMK A01 T00301008  RH  076%=      5-min Rain = 0
KUM1 231732Z 31035G43KT 03/M01 A2974 RMK A01 T00301008  RH  076%=      5-min Rain = 0
KUM1 231733Z 31040G45KT 03/M01 A2973 RMK A01 T00291010  RH  075%=      5-min Rain = 0
KUM1 231734Z 31038G43KT 03/M01 A2974 RMK A01 T00271013  RH  074%=      5-min Rain = 0
KUM1 231735Z 32034G39KT 03/M01 A2974 RMK A01 T00271012  RH  075%=      5-min Rain = 0
KUM1 231736Z 31036G43KT 03/M01 A2974 RMK A01 T00271011  RH  076%=      5-min Rain = 0
KUM1 231737Z 31030G39KT 03/M01 A2975 RMK A01 T00271011  RH  076%=      5-min Rain = 0
KUM1 231738Z 32031KT 03/M01 A2975 RMK A01 T00271009  RH  077%=      5-min Rain = 0
KUM1 231739Z 31034KT 03/M01 A2975 RMK A01 T00271009  RH  077%=      5-min Rain = 0
KUM1 231740Z 31033G39KT 03/M01 A2975 RMK A01 T00261012  RH  076%=      5-min Rain = 0
KUM1 231741Z 31032G39KT 03/M01 A2975 RMK A01 T00251012  RH  077%=      5-min Rain = 0
KUM1 231742Z 31032G37KT 03/M01 A2976 RMK A01 T00251010  RH  078%=      5-min Rain = 0
KUM1 231743Z 31034G40KT 02/M01 A2976 RMK A01 T00241012  RH  077%=      5-min Rain = 0
KUM1 231744Z 31034G40KT 02/M01 A2976 RMK A01 T00221014  RH  077%=      5-min Rain = 0
KUM1 231745Z 32032G40KT 02/M01 A2976 RMK A01 T00211014  RH  078%=      5-min Rain = 0
KUM1 231746Z 32029G40KT 02/M01 A2977 RMK A01 T00201012  RH  079%=      5-min Rain = 0
KUM1 231747Z 31033G40KT 02/M01 A2976 RMK A01 T00201012  RH  079%=      5-min Rain = 0
KUM1 231748Z 32033KT 02/M01 A2977 RMK A01 T00191014  RH  079%=      5-min Rain = 0
KUM1 231749Z 32029G34KT 02/M01 A2977 RMK A01 T00181014  RH  079%=      5-min Rain = 0
KUM1 231750Z 32034G41KT 02/M01 A2977 RMK A01 T00181014  RH  079%=      5-min Rain = 0
KUM1 231751Z 32034KT 02/M02 A2977 RMK A01 T00171016  RH  079%=      5-min Rain = 0
KUM1 231752Z 32036G41KT 02/M02 A2977 RMK A01 T00161016  RH  079%=      5-min Rain = 0
KUM1 231753Z 32034G39KT 02/M02 A2978 RMK A01 T00161016  RH  079%=      5-min Rain = 0
KUM1 231754Z 32026G33KT 02/M02 A2978 RMK A01 T00151016  RH  080%=      5-min Rain = 0
KUM1 231755Z 31024G31KT 02/M01 A2978 RMK A01 T00151013  RH  082%=      5-min Rain = 0
KUM1 231756Z 32027G34KT 02/M01 A2978 RMK A01 T00161011  RH  082%=      5-min Rain = 0
KUM1 231757Z 32032KT 02/M01 A2978 RMK A01 T00161013  RH  081%=      5-min Rain = 0
KUM1 231758Z 32030KT 02/M01 A2978 RMK A01 T00151014  RH  081%=      5-min Rain = 0
KUM1 231759Z 32029G34KT 02/M02 A2978 RMK A01 T00151015  RH  081%=      5-min Rain = 0
KUM1 231800Z 32027KT 02/M02 A2979 RMK A01 T00151015  RH  080%=      5-min Rain = 0
KUM1 231801Z 31027G34KT 02/M01 A2979 RMK A01 T00151014  RH  081%=      5-min Rain = 0
KUM1 231802Z 32032KT 02/M02 A2979 RMK A01 T00151015  RH  080%=      5-min Rain = 0
KUM1 231803Z 31034KT 02/M02 A2979 RMK A01 T00151017  RH  079%=      5-min Rain = 0
KUM1 231804Z 31030KT 02/M02 A2979 RMK A01 T00151017  RH  079%=      5-min Rain = 0
KUM1 231805Z 32029G34KT 02/M02 A2979 RMK A01 T00151017  RH  079%=      5-min Rain = 0
KUM1 231806Z 31028G33KT 02/M02 A2979 RMK A01 T00151015  RH  080%=      5-min Rain = 0
KUM1 231807Z 32028KT 02/M02 A298 RMK A01 T00161015  RH  080%=      5-min Rain = 0
KUM1 231808Z 31029G34KT 02/M02 A298 RMK A01 T00161015  RH  080%=      5-min Rain = 0
KUM1 231809Z 32028G33KT 02/M02 A298 RMK A01 T00151015  RH  080%=      5-min Rain = 0
KUM1 231810Z 32026KT 02/M01 A298 RMK A01 T00161014  RH  081%=      5-min Rain = 0
KUM1 231811Z 32027KT 02/M01 A298 RMK A01 T00171013  RH  081%=      5-min Rain = 0
KUM1 231812Z 32025G31KT 02/M01 A298 RMK A01 T00171013  RH  081%=      5-min Rain = 0
KUM1 231813Z 32028KT 02/M01 A298 RMK A01 T00181012  RH  081%=      5-min Rain = 0
KUM1 231814Z 32025G31KT 02/M01 A298 RMK A01 T00181012  RH  081%=      5-min Rain = 0
KUM1 231815Z 32027KT 02/M01 A298 RMK A01 T00181010  RH  081%=      5-min Rain = 0
KUM1 231816Z 32029KT 02/M01 A2981 RMK A01 T00181011  RH  081%=      5-min Rain = 0
KUM1 231817Z 32037KT 02/M02 A298 RMK A01 T00191016  RH  078%=      5-min Rain = 0
KUM1 231818Z 32032KT 02/M02 A298 RMK A01 T00191019  RH  076%=      5-min Rain = 0
KUM1 231819Z 32027G37KT 02/M02 A2981 RMK A01 T00191018  RH  077%=      5-min Rain = 0
KUM1 231820Z 32030G35KT 02/M02 A2981 RMK A01 T00191015  RH  078%=      5-min Rain = 0
KUM1 231821Z 32030KT 02/M02 A2981 RMK A01 T00191017  RH  077%=      5-min Rain = 0
KUM1 231822Z 32026G33KT 02/M02 A2981 RMK A01 T00181017  RH  077%=      5-min Rain = 0
KUM1 231823Z 32029G35KT 02/M02 A2981 RMK A01 T00191016  RH  078%=      5-min Rain = 0
KUM1 231824Z 32029G35KT 02/M02 A2981 RMK A01 T00191017  RH  077%=      5-min Rain = 0
KUM1 231825Z 32029KT 02/M02 A2982 RMK A01 T00191016  RH  078%=      5-min Rain = 0
KUM1 231826Z 32031KT 02/M02 A2982 RMK A01 T00201016  RH  077%=      5-min Rain = 0
KUM1 231827Z 32029KT 02/M02 A2982 RMK A01 T00211017  RH  076%=      5-min Rain = 0
KUM1 231828Z 32031G36KT 02/M02 A2981 RMK A01 T00221016  RH  076%=      5-min Rain = 0
KUM1 231829Z 32031G36KT 02/M02 A2981 RMK A01 T00231018  RH  074%=      5-min Rain = 0
KUM1 231830Z 32027KT 02/M02 A2982 RMK A01 T00231017  RH  075%=      5-min Rain = 0
KUM1 231831Z 32024KT 03/M02 A2982 RMK A01 T00251015  RH  075%=      5-min Rain = 0
KUM1 231832Z 32029G36KT 03/M01 A2982 RMK A01 T00261013  RH  075%=      5-min Rain = 0
KUM1 231833Z 32027G32KT 03/M01 A2982 RMK A01 T00271014  RH  075%=      5-min Rain = 0
KUM1 231834Z 32027KT 03/M01 A2982 RMK A01 T00291011  RH  075%=      5-min Rain = 0
KUM1 231835Z 32028G33KT 03/M01 A2982 RMK A01 T00311010  RH  074%=      5-min Rain = 0
KUM1 231836Z 32028KT 03/M02 A2982 RMK A01 T00301015  RH  072%=      5-min Rain = 0
KUM1 231837Z 32029KT 03/M02 A2982 RMK A01 T00291016  RH  072%=      5-min Rain = 0
KUM1 231838Z 32030G37KT 03/M02 A2982 RMK A01 T00281015  RH  074%=      5-min Rain = 0
KUM1 231839Z 33034G40KT 03/M02 A2982 RMK A01 T00281015  RH  073%=      5-min Rain = 0
KUM1 231840Z 32030G35KT 03/M02 A2982 RMK A01 T00281017  RH  072%=      5-min Rain = 0
KUM1 231841Z 32032G40KT 03/M02 A2982 RMK A01 T00301015  RH  072%=      5-min Rain = 0
KUM1 231842Z 32036G44KT 03/M02 A2982 RMK A01 T00301018  RH  071%=      5-min Rain = 0
KUM1 231843Z 33036G43KT 03/M02 A2982 RMK A01 T00291020  RH  070%=      5-min Rain = 0
KUM1 231844Z 33036KT 03/M02 A2982 RMK A01 T00291021  RH  070%=      5-min Rain = 0
KUM1 231845Z 33032G37KT 03/M02 A2982 RMK A01 T00281020  RH  070%=      5-min Rain = 0
KUM1 231846Z 33032G38KT 03/M02 A2982 RMK A01 T00281019  RH  071%=      5-min Rain = 0
KUM1 231847Z 33029KT 03/M02 A2983 RMK A01 T00291016  RH  072%=      5-min Rain = 0
KUM1 231848Z 32033KT 03/M01 A2982 RMK A01 T00311014  RH  072%=      5-min Rain = 0
KUM1 231849Z 33032KT 03/M02 A2982 RMK A01 T00311016  RH  071%=      5-min Rain = 0
KUM1 231850Z 33034KT 03/M02 A2982 RMK A01 T00301017  RH  071%=      5-min Rain = 0
KUM1 231851Z 33033KT 03/M02 A2982 RMK A01 T00291017  RH  071%=      5-min Rain = 0
KUM1 231852Z 33032G37KT 03/M02 A2982 RMK A01 T00301016  RH  072%=      5-min Rain = 0
KUM1 231853Z 33032G37KT 03/M02 A2982 RMK A01 T00311015  RH  072%=      5-min Rain = 0
KUM1 231854Z 33032KT 03/M02 A2982 RMK A01 T00311016  RH  071%=      5-min Rain = 0
KUM1 231855Z 33030G35KT 03/M02 A2982 RMK A01 T00311017  RH  071%=      5-min Rain = 0
KUM1 231856Z 33030G35KT 03/M02 A2982 RMK A01 T00311016  RH  071%=      5-min Rain = 0
KUM1 231857Z 33028KT 03/M02 A2982 RMK A01 T00311015  RH  072%=      5-min Rain = 0
KUM1 231858Z 33027KT 03/M02 A2983 RMK A01 T00301016  RH  072%=      5-min Rain = 0
KUM1 231859Z 32024G32KT 03/M01 A2983 RMK A01 T00311013  RH  073%=      5-min Rain = 0
KUM1 231900Z 32025G31KT 03/M01 A2983 RMK A01 T00321013  RH  073%=      5-min Rain = 0
KUM1 231901Z 32030G36KT 03/M01 A2983 RMK A01 T00341010  RH  073%=      5-min Rain = 0
KUM1 231902Z 31031KT 04/M02 A2982 RMK A01 T00351015  RH  070%=      5-min Rain = 0
KUM1 231903Z 32026KT 03/M02 A2983 RMK A01 T00331018  RH  069%=      5-min Rain = 0
KUM1 231904Z 32028G33KT 03/M01 A2983 RMK A01 T00331014  RH  071%=      5-min Rain = 0
KUM1 231905Z 32030G37KT 03/M02 A2983 RMK A01 T00331015  RH  071%=      5-min Rain = 0
KUM1 231906Z 32033G39KT 03/M02 A2983 RMK A01 T00311019  RH  070%=      5-min Rain = 0
KUM1 231907Z 32036G44KT 03/M02 A2983 RMK A01 T00311020  RH  069%=      5-min Rain = 0
KUM1 231908Z 32037G42KT 03/M02 A2983 RMK A01 T00331019  RH  069%=      5-min Rain = 0
KUM1 231909Z 32034G40KT 03/M02 A2983 RMK A01 T00331021  RH  068%=      5-min Rain = 0
KUM1 231910Z 33035G40KT 03/M02 A2983 RMK A01 T00331021  RH  068%=      5-min Rain = 0
KUM1 231911Z 32034G39KT 03/M02 A2983 RMK A01 T00321022  RH  068%=      5-min Rain = 0
KUM1 231912Z 32032G41KT 03/M02 A2983 RMK A01 T00321021  RH  068%=      5-min Rain = 0
KUM1 231913Z 32031KT 03/M02 A2984 RMK A01 T00321020  RH  069%=      5-min Rain = 0
KUM1 231914Z 33033KT 03/M02 A2983 RMK A01 T00321019  RH  069%=      5-min Rain = 0
KUM1 231915Z 33030G37KT 03/M02 A2984 RMK A01 T00311021  RH  069%=      5-min Rain = 0
KUM1 231916Z 32029G34KT 03/M02 A2984 RMK A01 T00311018  RH  070%=      5-min Rain = 0
KUM1 231917Z 32029G34KT 03/M02 A2984 RMK A01 T00321017  RH  070%=      5-min Rain = 0
KUM1 231918Z 32025KT 03/M02 A2984 RMK A01 T00321018  RH  070%=      5-min Rain = 0
KUM1 231919Z 32031G39KT 03/M02 A2984 RMK A01 T00321017  RH  070%=      5-min Rain = 0
KUM1 231920Z 33031G36KT 03/M02 A2984 RMK A01 T00321021  RH  068%=      5-min Rain = 0
KUM1 231921Z 33031G38KT 03/M02 A2984 RMK A01 T00311021  RH  068%=      5-min Rain = 0
KUM1 231922Z 33032G38KT 03/M02 A2984 RMK A01 T00311022  RH  068%=      5-min Rain = 0
KUM1 231923Z 32032G40KT 03/M02 A2984 RMK A01 T00311024  RH  067%=      5-min Rain = 0
KUM1 231924Z 33031G39KT 03/M02 A2985 RMK A01 T00311022  RH  068%=      5-min Rain = 0
KUM1 231925Z 32034KT 03/M02 A2985 RMK A01 T00321023  RH  067%=      5-min Rain = 0
KUM1 231926Z 33032G37KT 03/M02 A2985 RMK A01 T00321024  RH  067%=      5-min Rain = 0
KUM1 231927Z 33031G36KT 03/M02 A2985 RMK A01 T00331023  RH  067%=      5-min Rain = 0
KUM1 231928Z 33031KT 03/M02 A2985 RMK A01 T00331023  RH  067%=      5-min Rain = 0
KUM1 231929Z 33030G36KT 03/M02 A2985 RMK A01 T00331023  RH  067%=      5-min Rain = 0
KUM1 231930Z 33032KT 03/M02 A2985 RMK A01 T00331023  RH  067%=      5-min Rain = 0
KUM1 231931Z 33028KT 03/M03 A2986 RMK A01 T00331025  RH  066%=      5-min Rain = 0
KUM1 231932Z 32028G33KT 03/M02 A2986 RMK A01 T00331024  RH  066%=      5-min Rain = 0
KUM1 231933Z 33026G32KT 04/M02 A2986 RMK A01 T00351021  RH  067%=      5-min Rain = 0
KUM1 231934Z 33029KT 04/M02 A2986 RMK A01 T00381018  RH  067%=      5-min Rain = 0
KUM1 231935Z 34029KT 04/M02 A2986 RMK A01 T00381020  RH  066%=      5-min Rain = 0
KUM1 231936Z 33027G32KT 04/M02 A2986 RMK A01 T00391018  RH  066%=      5-min Rain = 0
KUM1 231937Z 33027KT 04/M02 A2986 RMK A01 T00411018  RH  066%=      5-min Rain = 0
KUM1 231938Z 32028G33KT 04/M02 A2986 RMK A01 T00421017  RH  065%=      5-min Rain = 0
KUM1 231939Z 33030KT 04/M02 A2986 RMK A01 T00421019  RH  064%=      5-min Rain = 0
KUM1 231940Z 33027G34KT 04/M02 A2986 RMK A01 T00401023  RH  063%=      5-min Rain = 0
KUM1 231941Z 34026G32KT 04/M02 A2987 RMK A01 T00401019  RH  066%=      5-min Rain = 0
KUM1 231942Z 34026G32KT 04/M01 A2987 RMK A01 T00421014  RH  067%=      5-min Rain = 0
KUM1 231943Z 34025G31KT 04/M02 A2987 RMK A01 T00401018  RH  066%=      5-min Rain = 0
KUM1 231944Z 34026KT 04/M02 A2987 RMK A01 T00381021  RH  065%=      5-min Rain = 0
KUM1 231945Z 33022KT 04/M02 A2987 RMK A01 T00381018  RH  067%=      5-min Rain = 0
KUM1 231946Z 33026G33KT 04/M01 A2987 RMK A01 T00441011  RH  067%=      5-min Rain = 0
KUM1 231947Z 33024G29KT 05/M01 A2987 RMK A01 T00461010  RH  067%=      5-min Rain = 0
KUM1 231948Z 33026KT 05/M02 A2987 RMK A01 T00471015  RH  064%=      5-min Rain = 0
KUM1 231949Z 33025G30KT 05/M01 A2987 RMK A01 T00471014  RH  064%=      5-min Rain = 0
KUM1 231950Z 34029G34KT 05/M01 A2987 RMK A01 T00501013  RH  064%=      5-min Rain = 0
KUM1 231951Z 34028KT 05/M02 A2987 RMK A01 T00481019  RH  062%=      5-min Rain = 0
KUM1 231952Z 32028KT 05/M02 A2987 RMK A01 T00451020  RH  062%=      5-min Rain = 0
KUM1 231953Z 33028G33KT 05/M02 A2987 RMK A01 T00451021  RH  062%=      5-min Rain = 0
KUM1 231954Z 33029KT 05/M02 A2987 RMK A01 T00451021  RH  062%=      5-min Rain = 0
KUM1 231955Z 33026KT 05/M02 A2987 RMK A01 T00481016  RH  063%=      5-min Rain = 0
KUM1 231956Z 33027KT 05/M01 A2987 RMK A01 T00511014  RH  063%=      5-min Rain = 0
KUM1 231957Z 32024KT 05/M02 A2987 RMK A01 T00511015  RH  062%=      5-min Rain = 0
KUM1 231958Z 33028G33KT 05/M01 A2987 RMK A01 T00541012  RH  063%=      5-min Rain = 0
KUM1 231959Z 33030KT 05/M02 A2987 RMK A01 T00531020  RH  059%=      5-min Rain = 0
KUM1 232000Z 33026KT 05/M02 A2988 RMK A01 T00511020  RH  060%=      5-min Rain = 0
KUM1 232001Z 33025G31KT 05/M02 A2988 RMK A01 T00511018  RH  061%=      5-min Rain = 0
KUM1 232002Z 34028KT 05/M02 A2988 RMK A01 T00501019  RH  061%=      5-min Rain = 0
KUM1 232003Z 33027KT 05/M02 A2988 RMK A01 T00471022  RH  061%=      5-min Rain = 0
KUM1 232004Z 32026G31KT 05/M02 A2988 RMK A01 T00461021  RH  062%=      5-min Rain = 0
KUM1 232005Z 33026KT 05/M02 A2988 RMK A01 T00481019  RH  062%=      5-min Rain = 0
KUM1 232006Z 33023KT 05/M02 A2988 RMK A01 T00501018  RH  061%=      5-min Rain = 0
KUM1 232007Z 33026KT 05/M02 A2988 RMK A01 T00531015  RH  062%=      5-min Rain = 0
KUM1 232008Z 33025KT 05/M02 A2988 RMK A01 T00501020  RH  061%=      5-min Rain = 0
KUM1 232009Z 34024KT 05/M02 A2988 RMK A01 T00481019  RH  062%=      5-min Rain = 0
KUM1 232010Z 33026KT 05/M02 A2988 RMK A01 T00461020  RH  062%=      5-min Rain = 0
KUM1 232011Z 33026KT 05/M02 A2988 RMK A01 T00451021  RH  062%=      5-min Rain = 0
KUM1 232012Z 33026KT 05/M02 A2988 RMK A01 T00451020  RH  062%=      5-min Rain = 0
KUM1 232013Z 32023KT 05/M02 A2988 RMK A01 T00451024  RH  061%=      5-min Rain = 0
KUM1 232014Z 33023KT 04/M02 A2988 RMK A01 T00441024  RH  061%=      5-min Rain = 0
KUM1 232015Z 33025KT 04/M02 A2988 RMK A01 T00441023  RH  062%=      5-min Rain = 0
KUM1 232016Z 34027KT 04/M03 A2988 RMK A01 T00421025  RH  062%=      5-min Rain = 0
KUM1 232017Z 33028KT 04/M02 A2988 RMK A01 T00441023  RH  062%=      5-min Rain = 0
KUM1 232018Z 33029KT 05/M02 A2988 RMK A01 T00481019  RH  062%=      5-min Rain = 0
KUM1 232019Z 33028KT 05/M02 A2988 RMK A01 T00501020  RH  060%=      5-min Rain = 0
KUM1 232020Z 33030KT 05/M02 A2988 RMK A01 T00521019  RH  060%=      5-min Rain = 0
KUM1 232021Z 33030KT 05/M03 A2988 RMK A01 T00501025  RH  058%=      5-min Rain = 0
KUM1 232022Z 33028KT 05/M03 A2988 RMK A01 T00471026  RH  059%=      5-min Rain = 0
KUM1 232023Z 33027KT 05/M03 A2988 RMK A01 T00461027  RH  059%=      5-min Rain = 0
KUM1 232024Z 33026KT 05/M03 A2988 RMK A01 T00461026  RH  060%=      5-min Rain = 0
KUM1 232025Z 33028KT 05/M03 A2988 RMK A01 T00461026  RH  060%=      5-min Rain = 0
KUM1 232026Z 33027KT 05/M03 A2988 RMK A01 T00461026  RH  059%=      5-min Rain = 0
KUM1 232027Z 33026KT 05/M02 A2988 RMK A01 T00481022  RH  060%=      5-min Rain = 0
KUM1 232028Z 33028KT 05/M02 A2988 RMK A01 T00491022  RH  060%=      5-min Rain = 0
KUM1 232029Z 33030KT 05/M02 A2988 RMK A01 T00491023  RH  060%=      5-min Rain = 0
KUM1 232030Z 33029KT 05/M03 A2988 RMK A01 T00481025  RH  059%=      5-min Rain = 0
KUM1 232031Z 34027KT 05/M03 A2988 RMK A01 T00451027  RH  060%=      5-min Rain = 0
KUM1 232032Z 34027G32KT 05/M02 A2988 RMK A01 T00451023  RH  061%=      5-min Rain = 0
KUM1 232033Z 34024KT 05/M02 A2988 RMK A01 T00471021  RH  061%=      5-min Rain = 0
KUM1 232034Z 34027G32KT 05/M02 A2988 RMK A01 T00511017  RH  061%=      5-min Rain = 0
KUM1 232035Z 34026KT 05/M02 A2989 RMK A01 T00521018  RH  060%=      5-min Rain = 0
KUM1 232036Z 34031KT 05/M02 A2988 RMK A01 T00541018  RH  059%=      5-min Rain = 0
KUM1 232037Z 34033KT 05/M03 A2988 RMK A01 T00521026  RH  057%=      5-min Rain = 0
KUM1 232038Z 34029KT 05/M03 A2988 RMK A01 T00491028  RH  057%=      5-min Rain = 0
KUM1 232039Z 34029G34KT 05/M02 A2989 RMK A01 T00501024  RH  059%=      5-min Rain = 0
KUM1 232040Z 33027G33KT 05/M02 A2989 RMK A01 T00521023  RH  058%=      5-min Rain = 0
KUM1 232041Z 34026KT 05/M02 A2989 RMK A01 T00531022  RH  058%=      5-min Rain = 0
KUM1 232042Z 34029KT 05/M03 A2989 RMK A01 T00521025  RH  058%=      5-min Rain = 0
KUM1 232043Z 34026KT 05/M03 A2989 RMK A01 T00481028  RH  058%=      5-min Rain = 0
KUM1 232044Z 34029KT 05/M03 A2989 RMK A01 T00471027  RH  059%=      5-min Rain = 0
KUM1 232045Z 34027G32KT 05/M03 A2989 RMK A01 T00481026  RH  059%=      5-min Rain = 0
KUM1 232046Z 33026KT 05/M02 A2989 RMK A01 T00511021  RH  060%=      5-min Rain = 0
KUM1 232047Z 33030KT 06/M02 A2989 RMK A01 T00551019  RH  059%=      5-min Rain = 0
KUM1 232048Z 33029KT 06/M02 A2989 RMK A01 T00561021  RH  058%=      5-min Rain = 0
KUM1 232049Z 33031G36KT 05/M02 A2989 RMK A01 T00541023  RH  058%=      5-min Rain = 0
KUM1 232050Z 33024G29KT 05/M02 A2989 RMK A01 T00521023  RH  058%=      5-min Rain = 0
KUM1 232051Z 34029G34KT 05/M02 A2989 RMK A01 T00541019  RH  059%=      5-min Rain = 0
KUM1 232052Z 34029KT 05/M02 A2989 RMK A01 T00531023  RH  058%=      5-min Rain = 0
KUM1 232053Z 33028KT 05/M02 A299 RMK A01 T00521024  RH  058%=      5-min Rain = 0
KUM1 232054Z 34031G37KT 05/M03 A299 RMK A01 T00521025  RH  058%=      5-min Rain = 0
KUM1 232055Z 35029G34KT 05/M03 A299 RMK A01 T00511028  RH  057%=      5-min Rain = 0
KUM1 232056Z 34028G33KT 05/M03 A299 RMK A01 T00481028  RH  058%=      5-min Rain = 0
KUM1 232057Z 35030KT 05/M03 A299 RMK A01 T00471028  RH  058%=      5-min Rain = 0
KUM1 232058Z 34029KT 05/M03 A299 RMK A01 T00451030  RH  058%=      5-min Rain = 0
KUM1 232059Z 34022G30KT 04/M03 A2991 RMK A01 T00441028  RH  060%=      5-min Rain = 0
KUM1 232100Z 34025KT 05/M03 A2991 RMK A01 T00451026  RH  060%=      5-min Rain = 0
KUM1 232101Z 34027G35KT 05/M02 A2991 RMK A01 T00481024  RH  060%=      5-min Rain = 0
KUM1 232102Z 33027KT 05/M03 A2991 RMK A01 T00481026  RH  059%=      5-min Rain = 0
KUM1 232103Z 34026KT 05/M03 A2991 RMK A01 T00481026  RH  059%=      5-min Rain = 0
KUM1 232104Z 35025KT 05/M02 A2991 RMK A01 T00501024  RH  059%=      5-min Rain = 0
KUM1 232105Z 34027KT 05/M02 A2991 RMK A01 T00521024  RH  058%=      5-min Rain = 0
KUM1 232106Z 34026KT 05/M02 A2991 RMK A01 T00521024  RH  058%=      5-min Rain = 0
KUM1 232107Z 34023KT 05/M03 A2991 RMK A01 T00521025  RH  058%=      5-min Rain = 0
KUM1 232108Z 34025KT 05/M02 A2991 RMK A01 T00531023  RH  058%=      5-min Rain = 0
KUM1 232109Z 34024KT 05/M02 A2991 RMK A01 T00531024  RH  058%=      5-min Rain = 0
KUM1 232110Z 35023KT 06/M02 A2992 RMK A01 T00551021  RH  058%=      5-min Rain = 0
KUM1 232111Z 34026KT 06/M02 A2991 RMK A01 T00571021  RH  057%=      5-min Rain = 0
KUM1 232112Z 33028KT 06/M02 A2991 RMK A01 T00571023  RH  056%=      5-min Rain = 0
KUM1 232113Z 33029KT 06/M02 A2991 RMK A01 T00571024  RH  056%=      5-min Rain = 0
KUM1 232114Z 33029G34KT 06/M02 A2992 RMK A01 T00571024  RH  056%=      5-min Rain = 0
KUM1 232115Z 34025G30KT 06/M03 A2992 RMK A01 T00571025  RH  056%=      5-min Rain = 0
KUM1 232116Z 33027KT 06/M02 A2992 RMK A01 T00591023  RH  056%=      5-min Rain = 0
KUM1 232117Z 33030KT 06/M03 A2992 RMK A01 T00591026  RH  054%=      5-min Rain = 0
KUM1 232118Z 34025G30KT 06/M03 A2992 RMK A01 T00581025  RH  055%=      5-min Rain = 0
KUM1 232119Z 33024G29KT 06/M02 A2992 RMK A01 T00591024  RH  055%=      5-min Rain = 0
KUM1 232120Z 34027KT 06/M03 A2993 RMK A01 T00591025  RH  055%=      5-min Rain = 0
KUM1 232121Z 35024KT 06/M03 A2993 RMK A01 T00571026  RH  055%=      5-min Rain = 0
KUM1 232122Z 34027G32KT 06/M03 A2993 RMK A01 T00571025  RH  055%=      5-min Rain = 0
KUM1 232123Z 34022G27KT 06/M02 A2993 RMK A01 T00581022  RH  056%=      5-min Rain = 0
KUM1 232124Z 34025KT 06/M02 A2992 RMK A01 T00581023  RH  056%=      5-min Rain = 0
KUM1 232125Z 34026KT 06/M02 A2993 RMK A01 T00581022  RH  056%=      5-min Rain = 0
KUM1 232126Z 34023KT 06/M02 A2993 RMK A01 T00571024  RH  056%=      5-min Rain = 0
KUM1 232127Z 33022KT 06/M02 A2993 RMK A01 T00571022  RH  057%=      5-min Rain = 0
KUM1 232128Z 34022KT 06/M02 A2993 RMK A01 T00551023  RH  057%=      5-min Rain = 0
KUM1 232129Z 34024KT 05/M02 A2993 RMK A01 T00541022  RH  058%=      5-min Rain = 0
KUM1 232130Z 34021KT 06/M02 A2993 RMK A01 T00561022  RH  057%=      5-min Rain = 0
KUM1 232131Z 34024KT 06/M02 A2993 RMK A01 T00561024  RH  056%=      5-min Rain = 0
KUM1 232132Z 34025KT 06/M02 A2993 RMK A01 T00561024  RH  056%=      5-min Rain = 0
KUM1 232133Z 34019G25KT 06/M02 A2994 RMK A01 T00561022  RH  057%=      5-min Rain = 0
KUM1 232134Z 33018KT 06/M02 A2994 RMK A01 T00571019  RH  058%=      5-min Rain = 0
KUM1 232135Z 34023KT 06/M02 A2994 RMK A01 T00591018  RH  058%=      5-min Rain = 0
KUM1 232136Z 33021G26KT 06/M02 A2994 RMK A01 T00591021  RH  057%=      5-min Rain = 0
KUM1 232137Z 34023KT 06/M03 A2994 RMK A01 T00551026  RH  056%=      5-min Rain = 0
KUM1 232138Z 34020KT 06/M02 A2994 RMK A01 T00551023  RH  057%=      5-min Rain = 0
KUM1 232139Z 34021KT 06/M02 A2994 RMK A01 T00571022  RH  057%=      5-min Rain = 0
KUM1 232140Z 35021KT 06/M02 A2994 RMK A01 T00601016  RH  058%=      5-min Rain = 0
KUM1 232141Z 35025KT 06/M02 A2994 RMK A01 T00631018  RH  056%=      5-min Rain = 0
KUM1 232142Z 35025KT 06/M02 A2994 RMK A01 T00601022  RH  056%=      5-min Rain = 0
KUM1 232143Z 35023KT 06/M02 A2994 RMK A01 T00611021  RH  056%=      5-min Rain = 0
KUM1 232144Z 35023KT 06/M02 A2994 RMK A01 T00601024  RH  055%=      5-min Rain = 0
KUM1 232145Z 35022KT 06/M02 A2994 RMK A01 T00591022  RH  056%=      5-min Rain = 0
KUM1 232146Z 34018KT 06/M02 A2994 RMK A01 T00611020  RH  056%=      5-min Rain = 0
KUM1 232147Z 34021KT 06/M02 A2994 RMK A01 T00611023  RH  055%=      5-min Rain = 0
KUM1 232148Z 34023KT 06/M02 A2994 RMK A01 T00601024  RH  055%=      5-min Rain = 0
KUM1 232149Z 35024KT 06/M02 A2994 RMK A01 T00611024  RH  055%=      5-min Rain = 0
KUM1 232150Z 35023KT 06/M02 A2994 RMK A01 T00611024  RH  054%=      5-min Rain = 0
KUM1 232151Z 35021KT 06/M03 A2994 RMK A01 T00601026  RH  054%=      5-min Rain = 0
KUM1 232152Z 36024KT 06/M02 A2994 RMK A01 T00601024  RH  055%=      5-min Rain = 0
KUM1 232153Z 35022KT 06/M02 A2994 RMK A01 T00611023  RH  055%=      5-min Rain = 0
KUM1 232154Z 35023KT 06/M02 A2994 RMK A01 T00611024  RH  054%=      5-min Rain = 0
KUM1 232155Z 33022KT 06/M03 A2994 RMK A01 T00601025  RH  054%=      5-min Rain = 0
KUM1 232156Z 34021KT 06/M03 A2994 RMK A01 T00611025  RH  054%=      5-min Rain = 0
KUM1 232157Z 34020KT 06/M02 A2994 RMK A01 T00611024  RH  054%=      5-min Rain = 0
KUM1 232158Z 34019KT 06/M02 A2995 RMK A01 T00631020  RH  055%=      5-min Rain = 0
KUM1 232159Z 34019G24KT 06/M02 A2995 RMK A01 T00641022  RH  054%=      5-min Rain = 0
KUM1 232200Z 34019KT 06/M02 A2995 RMK A01 T00631020  RH  055%=      5-min Rain = 0
KUM1 232201Z 33022KT 07/M02 A2995 RMK A01 T00651021  RH  054%=      5-min Rain = 0
KUM1 232202Z 33022KT 06/M03 A2995 RMK A01 T00641025  RH  053%=      5-min Rain = 0
KUM1 232203Z 33021KT 06/M03 A2995 RMK A01 T00631026  RH  053%=      5-min Rain = 0
KUM1 232204Z 33023G28KT 06/M03 A2995 RMK A01 T00621028  RH  052%=      5-min Rain = 0
KUM1 232205Z 34022KT 06/M03 A2995 RMK A01 T00621028  RH  052%=      5-min Rain = 0
KUM1 232206Z 35019KT 06/M03 A2995 RMK A01 T00611028  RH  053%=      5-min Rain = 0
KUM1 232207Z 34015KT 06/M03 A2996 RMK A01 T00611025  RH  054%=      5-min Rain = 0
KUM1 232208Z 34017G22KT 06/M02 A2996 RMK A01 T00641020  RH  055%=      5-min Rain = 0
KUM1 232209Z 34016KT 07/M02 A2996 RMK A01 T00651022  RH  054%=      5-min Rain = 0
KUM1 232210Z 32020G25KT 07/M02 A2996 RMK A01 T00651022  RH  054%=      5-min Rain = 0
KUM1 232211Z 34024KT 06/M02 A2996 RMK A01 T00641023  RH  054%=      5-min Rain = 0
KUM1 232212Z 34020G25KT 06/M02 A2996 RMK A01 T00641023  RH  054%=      5-min Rain = 0
KUM1 232213Z 34021KT 06/M02 A2996 RMK A01 T00641024  RH  054%=      5-min Rain = 0
KUM1 232214Z 34019KT 06/M03 A2997 RMK A01 T00631025  RH  053%=      5-min Rain = 0
KUM1 232215Z 34022G27KT 06/M02 A2996 RMK A01 T00631022  RH  054%=      5-min Rain = 0
KUM1 232216Z 33021KT 06/M02 A2996 RMK A01 T00641023  RH  054%=      5-min Rain = 0
KUM1 232217Z 33023KT 06/M03 A2997 RMK A01 T00641025  RH  053%=      5-min Rain = 0
KUM1 232218Z 33019KT 06/M03 A2997 RMK A01 T00631029  RH  052%=      5-min Rain = 0
KUM1 232219Z 33026KT 06/M03 A2997 RMK A01 T00641028  RH  052%=      5-min Rain = 0
KUM1 232220Z 34023KT 06/M03 A2997 RMK A01 T00641031  RH  051%=      5-min Rain = 0
KUM1 232221Z 33026KT 06/M03 A2997 RMK A01 T00641032  RH  050%=      5-min Rain = 0
KUM1 232222Z 33023KT 06/M03 A2998 RMK A01 T00621033  RH  051%=      5-min Rain = 0
KUM1 232223Z 34022KT 06/M03 A2998 RMK A01 T00611033  RH  051%=      5-min Rain = 0
KUM1 232224Z 34020KT 06/M03 A2998 RMK A01 T00601031  RH  052%=      5-min Rain = 0
KUM1 232225Z 33022KT 06/M03 A2998 RMK A01 T00611029  RH  052%=      5-min Rain = 0
KUM1 232226Z 34021KT 06/M03 A2998 RMK A01 T00621028  RH  052%=      5-min Rain = 0
KUM1 232227Z 34020KT 06/M03 A2998 RMK A01 T00621031  RH  051%=      5-min Rain = 0
KUM1 232228Z 34024KT 06/M03 A2998 RMK A01 T00611031  RH  052%=      5-min Rain = 0
KUM1 232229Z 34024KT 06/M03 A2998 RMK A01 T00601031  RH  052%=      5-min Rain = 0
KUM1 232230Z 34023KT 06/M03 A2998 RMK A01 T00591033  RH  052%=      5-min Rain = 0
KUM1 232231Z 35019KT 06/M03 A2999 RMK A01 T00591030  RH  053%=      5-min Rain = 0
KUM1 232232Z 34019KT 06/M03 A2999 RMK A01 T00601029  RH  053%=      5-min Rain = 0
KUM1 232233Z 34016KT 06/M03 A2999 RMK A01 T00611026  RH  054%=      5-min Rain = 0
KUM1 232234Z 34023KT 06/M03 A2999 RMK A01 T00631025  RH  053%=      5-min Rain = 0
KUM1 232235Z 34022KT 06/M03 A2999 RMK A01 T00621029  RH  052%=      5-min Rain = 0
KUM1 232236Z 34022KT 06/M03 A2999 RMK A01 T00611030  RH  052%=      5-min Rain = 0
KUM1 232237Z 34021KT 06/M03 A30 RMK A01 T00601029  RH  053%=      5-min Rain = 0
KUM1 232238Z 33024KT 06/M03 A2999 RMK A01 T00601029  RH  053%=      5-min Rain = 0
KUM1 232239Z 33022KT 06/M03 A2999 RMK A01 T00601030  RH  052%=      5-min Rain = 0
KUM1 232240Z 33019G24KT 06/M03 A30 RMK A01 T00601029  RH  053%=      5-min Rain = 0
KUM1 232241Z 34018KT 06/M03 A30 RMK A01 T00611025  RH  054%=      5-min Rain = 0
KUM1 232242Z 34018KT 06/M03 A30 RMK A01 T00631025  RH  054%=      5-min Rain = 0
KUM1 232243Z 35022KT 06/M02 A30 RMK A01 T00631023  RH  054%=      5-min Rain = 0
KUM1 232244Z 35020KT 06/M03 A30 RMK A01 T00621028  RH  053%=      5-min Rain = 0
KUM1 232245Z 34020KT 06/M03 A30 RMK A01 T00611027  RH  053%=      5-min Rain = 0
KUM1 232246Z 34019KT 06/M03 A30 RMK A01 T00601027  RH  053%=      5-min Rain = 0
KUM1 232247Z 34019KT 06/M03 A30 RMK A01 T00601028  RH  053%=      5-min Rain = 0
KUM1 232248Z 34020KT 06/M03 A30 RMK A01 T00591027  RH  054%=      5-min Rain = 0
KUM1 232249Z 35019KT 06/M03 A30 RMK A01 T00591027  RH  054%=      5-min Rain = 0
KUM1 232250Z 35020KT 06/M03 A3001 RMK A01 T00591027  RH  054%=      5-min Rain = 0
KUM1 232251Z 35017KT 06/M03 A30 RMK A01 T00581027  RH  054%=      5-min Rain = 0
KUM1 232252Z 35019KT 06/M03 A30 RMK A01 T00571028  RH  054%=      5-min Rain = 0
KUM1 232253Z 35017G23KT 06/M03 A30 RMK A01 T00571026  RH  055%=      5-min Rain = 0
KUM1 232254Z 35019KT 06/M03 A30 RMK A01 T00581025  RH  055%=      5-min Rain = 0
KUM1 232255Z 35019KT 06/M02 A30 RMK A01 T00591023  RH  055%=      5-min Rain = 0
KUM1 232256Z 35021KT 06/M03 A30 RMK A01 T00591026  RH  054%=      5-min Rain = 0
KUM1 232257Z 36017KT 06/M03 A30 RMK A01 T00571028  RH  054%=      5-min Rain = 0
KUM1 232258Z 00015KT 06/M03 A30 RMK A01 T00561027  RH  055%=      5-min Rain = 0
KUM1 232259Z 35016KT 06/M02 A30 RMK A01 T00571024  RH  056%=      5-min Rain = 0
KUM1 232300Z 36020KT 06/M02 A30 RMK A01 T00591023  RH  056%=      5-min Rain = 0
KUM1 232301Z 35020KT 06/M03 A30 RMK A01 T00581025  RH  055%=      5-min Rain = 0
KUM1 232302Z 35022KT 06/M03 A30 RMK A01 T00581026  RH  055%=      5-min Rain = 0
KUM1 232303Z 35020KT 06/M03 A30 RMK A01 T00571027  RH  055%=      5-min Rain = 0
KUM1 232304Z 35019KT 06/M03 A30 RMK A01 T00561029  RH  055%=      5-min Rain = 0
KUM1 232305Z 35017KT 06/M03 A30 RMK A01 T00551026  RH  056%=      5-min Rain = 0
KUM1 232306Z 35017KT 06/M03 A30 RMK A01 T00561026  RH  056%=      5-min Rain = 0
KUM1 232307Z 35018KT 06/M03 A30 RMK A01 T00561025  RH  056%=      5-min Rain = 0
KUM1 232308Z 00015KT 06/M03 A30 RMK A01 T00561027  RH  055%=      5-min Rain = 0
KUM1 232309Z 00013KT 06/M02 A30 RMK A01 T00561024  RH  056%=      5-min Rain = 0
KUM1 232310Z 36014KT 06/M02 A30 RMK A01 T00571023  RH  056%=      5-min Rain = 0
KUM1 232311Z 36018KT 06/M02 A30 RMK A01 T00581021  RH  057%=      5-min Rain = 0
KUM1 232312Z 00016KT 06/M02 A30 RMK A01 T00581024  RH  055%=      5-min Rain = 0
KUM1 232313Z 35015KT 06/M03 A30 RMK A01 T00571026  RH  055%=      5-min Rain = 0
KUM1 232314Z 36015KT 06/M02 A30 RMK A01 T00571023  RH  056%=      5-min Rain = 0
KUM1 232315Z 35015KT 06/M02 A30 RMK A01 T00581024  RH  056%=      5-min Rain = 0
KUM1 232316Z 35017KT 06/M02 A30 RMK A01 T00581023  RH  056%=      5-min Rain = 0
KUM1 232317Z 35018KT 06/M02 A30 RMK A01 T00591024  RH  055%=      5-min Rain = 0
KUM1 232318Z 35018KT 06/M03 A30 RMK A01 T00581025  RH  055%=      5-min Rain = 0
KUM1 232319Z 34017KT 06/M02 A30 RMK A01 T00581024  RH  056%=      5-min Rain = 0
KUM1 232320Z 34015KT 06/M02 A3001 RMK A01 T00581024  RH  056%=      5-min Rain = 0
KUM1 232321Z 35017KT 06/M02 A3001 RMK A01 T00581024  RH  056%=      5-min Rain = 0
KUM1 232322Z 35018KT 06/M03 A3001 RMK A01 T00591025  RH  055%=      5-min Rain = 0
KUM1 232323Z 36016G21KT 06/M03 A3001 RMK A01 T00571026  RH  055%=      5-min Rain = 0
KUM1 232324Z 00019KT 06/M03 A3001 RMK A01 T00571027  RH  055%=      5-min Rain = 0
KUM1 232325Z 36017KT 06/M03 A3001 RMK A01 T00571027  RH  055%=      5-min Rain = 0
KUM1 232326Z 35017KT 06/M03 A3001 RMK A01 T00571026  RH  055%=      5-min Rain = 0
KUM1 232327Z 35016KT 06/M03 A3001 RMK A01 T00581027  RH  054%=      5-min Rain = 0
KUM1 232328Z 35015KT 06/M03 A3001 RMK A01 T00581026  RH  055%=      5-min Rain = 0
KUM1 232329Z 35016KT 06/M03 A3001 RMK A01 T00591026  RH  055%=      5-min Rain = 0
KUM1 232330Z 35015KT 06/M03 A3001 RMK A01 T00591025  RH  055%=      5-min Rain = 0
KUM1 232331Z 34015KT 06/M03 A3001 RMK A01 T00581025  RH  055%=      5-min Rain = 0
KUM1 232332Z 35017KT 06/M03 A3001 RMK A01 T00581028  RH  054%=      5-min Rain = 0
KUM1 232333Z 36018KT 06/M03 A3002 RMK A01 T00571031  RH  053%=      5-min Rain = 0
KUM1 232334Z 36018KT 06/M03 A3002 RMK A01 T00551030  RH  054%=      5-min Rain = 0
KUM1 232335Z 36017KT 06/M03 A3002 RMK A01 T00551030  RH  054%=      5-min Rain = 0
KUM1 232336Z 36019KT 06/M03 A3002 RMK A01 T00551029  RH  055%=      5-min Rain = 0
KUM1 232337Z 35015KT 05/M03 A3002 RMK A01 T00541029  RH  055%=      5-min Rain = 0
KUM1 232338Z 35015KT 05/M03 A3002 RMK A01 T00541027  RH  056%=      5-min Rain = 0
KUM1 232339Z 35015KT 05/M03 A3002 RMK A01 T00541026  RH  056%=      5-min Rain = 0
KUM1 232340Z 35015KT 05/M03 A3002 RMK A01 T00541027  RH  056%=      5-min Rain = 0
KUM1 232341Z 35015KT 05/M03 A3002 RMK A01 T00531027  RH  056%=      5-min Rain = 0
KUM1 232342Z 35015KT 05/M03 A3002 RMK A01 T00531029  RH  056%=      5-min Rain = 0
KUM1 232343Z 35015KT 05/M03 A3002 RMK A01 T00521029  RH  056%=      5-min Rain = 0
KUM1 232344Z 35015KT 05/M03 A3002 RMK A01 T00521029  RH  056%=      5-min Rain = 0
KUM1 232345Z 35016KT 05/M03 A3002 RMK A01 T00511031  RH  055%=      5-min Rain = 0
KUM1 232346Z 35014KT 05/M03 A3002 RMK A01 T00511031  RH  055%=      5-min Rain = 0
KUM1 232347Z 35013KT 05/M03 A3002 RMK A01 T00511028  RH  057%=      5-min Rain = 0
KUM1 232348Z 35015KT 05/M03 A3002 RMK A01 T00511029  RH  056%=      5-min Rain = 0
KUM1 232349Z 34014KT 05/M03 A3002 RMK A01 T00511030  RH  056%=      5-min Rain = 0
KUM1 232350Z 35014KT 05/M03 A3002 RMK A01 T00511031  RH  055%=      5-min Rain = 0
KUM1 232351Z 34014KT 05/M03 A3002 RMK A01 T00511033  RH  054%=      5-min Rain = 0
KUM1 232352Z 33014KT 05/M03 A3002 RMK A01 T00511034  RH  054%=      5-min Rain = 0
KUM1 232353Z 34013KT 05/M04 A3002 RMK A01 T00511037  RH  053%=      5-min Rain = 0
KUM1 232354Z 34014KT 05/M04 A3002 RMK A01 T00511035  RH  054%=      5-min Rain = 0
KUM1 232355Z 35016KT 05/M04 A3002 RMK A01 T00511036  RH  053%=      5-min Rain = 0
KUM1 232356Z 34013KT 05/M04 A3002 RMK A01 T00501037  RH  054%=      5-min Rain = 0
KUM1 232357Z 34012KT 05/M03 A3002 RMK A01 T00491033  RH  055%=      5-min Rain = 0
KUM1 232358Z 34013KT 05/M03 A3002 RMK A01 T00491031  RH  056%=      5-min Rain = 0
KUM1 232359Z 34014KT 05/M03 A3002 RMK A01 T00491034  RH  055%=      5-min Rain = 0
KUM1 240000Z 34014KT 05/M04 A3002 RMK A01 T00481035  RH  055%=      5-min Rain = 0
KUM1 240001Z 34014KT 05/M04 A3002 RMK A01 T00481036  RH  054%=      5-min Rain = 0
KUM1 240002Z 34015KT 05/M04 A3002 RMK A01 T00471040  RH  053%=      5-min Rain = 0
KUM1 240003Z 34013KT 05/M04 A3002 RMK A01 T00471039  RH  054%=      5-min Rain = 0
KUM1 240004Z 34013KT 05/M04 A3002 RMK A01 T00471037  RH  054%=      5-min Rain = 0
KUM1 240005Z 34012KT 05/M04 A3002 RMK A01 T00461039  RH  054%=      5-min Rain = 0
KUM1 240006Z 34013KT 05/M04 A3002 RMK A01 T00461041  RH  053%=      5-min Rain = 0
KUM1 240007Z 34014KT 05/M04 A3002 RMK A01 T00461042  RH  053%=      5-min Rain = 0
KUM1 240008Z 35012KT 05/M04 A3002 RMK A01 T00451044  RH  052%=      5-min Rain = 0
KUM1 240009Z 35012KT 04/M04 A3002 RMK A01 T00441043  RH  053%=      5-min Rain = 0
KUM1 240010Z 35014KT 04/M05 A3002 RMK A01 T00441049  RH  051%=      5-min Rain = 0
KUM1 240011Z 35015KT 04/M06 A3002 RMK A01 T00431057  RH  048%=      5-min Rain = 0
KUM1 240012Z 35016KT 04/M06 A3002 RMK A01 T00421061  RH  047%=      5-min Rain = 0
KUM1 240013Z 35016KT 04/M06 A3002 RMK A01 T00421064  RH  046%=      5-min Rain = 0
KUM1 240014Z 35016KT 04/M07 A3002 RMK A01 T00411067  RH  045%=      5-min Rain = 0
KUM1 240015Z 36013KT 04/M07 A3002 RMK A01 T00411065  RH  046%=      5-min Rain = 0
KUM1 240016Z 36013KT 04/M06 A3002 RMK A01 T00401062  RH  047%=      5-min Rain = 0
KUM1 240017Z 36015KT 04/M06 A3002 RMK A01 T00391063  RH  047%=      5-min Rain = 0
KUM1 240018Z 35014KT 04/M07 A3002 RMK A01 T00381065  RH  047%=      5-min Rain = 0
KUM1 240019Z 35014KT 04/M06 A3003 RMK A01 T00381064  RH  047%=      5-min Rain = 0
KUM1 240020Z 35013KT 04/M07 A3003 RMK A01 T00371065  RH  047%=      5-min Rain = 0
KUM1 240021Z 35012KT 04/M06 A3003 RMK A01 T00361064  RH  048%=      5-min Rain = 0
KUM1 240022Z 35012KT 04/M06 A3003 RMK A01 T00351062  RH  049%=      5-min Rain = 0
KUM1 240023Z 35012KT 04/M06 A3003 RMK A01 T00351064  RH  048%=      5-min Rain = 0
KUM1 240024Z 35010KT 03/M07 A3003 RMK A01 T00341066  RH  048%=      5-min Rain = 0
KUM1 240025Z 35011KT 03/M06 A3003 RMK A01 T00341064  RH  049%=      5-min Rain = 0
KUM1 240026Z 34010KT 03/M07 A3003 RMK A01 T00331065  RH  049%=      5-min Rain = 0
KUM1 240027Z 35010KT 03/M07 A3003 RMK A01 T00321065  RH  049%=      5-min Rain = 0
KUM1 240028Z 35010KT 03/M07 A3003 RMK A01 T00311065  RH  049%=      5-min Rain = 0
KUM1 240029Z 35009KT 03/M06 A3003 RMK A01 T00311064  RH  050%=      5-min Rain = 0
KUM1 240030Z 35009KT 03/M06 A3003 RMK A01 T00301063  RH  050%=      5-min Rain = 0
KUM1 240031Z 35011KT 03/M06 A3003 RMK A01 T00291062  RH  051%=      5-min Rain = 0
KUM1 240032Z 35011KT 03/M06 A3003 RMK A01 T00291061  RH  051%=      5-min Rain = 0
KUM1 240033Z 35010KT 03/M06 A3003 RMK A01 T00281061  RH  052%=      5-min Rain = 0
KUM1 240034Z 35010KT 03/M06 A3003 RMK A01 T00281060  RH  053%=      5-min Rain = 0
KUM1 240035Z 35009KT 03/M06 A3003 RMK A01 T00271059  RH  053%=      5-min Rain = 0
KUM1 240036Z 35009KT 03/M06 A3003 RMK A01 T00261058  RH  054%=      5-min Rain = 0
KUM1 240037Z 36010KT 03/M06 A3003 RMK A01 T00251057  RH  055%=      5-min Rain = 0
KUM1 240038Z 36010KT 02/M06 A3003 RMK A01 T00241057  RH  055%=      5-min Rain = 0
KUM1 240039Z 36010KT 02/M06 A3003 RMK A01 T00231056  RH  056%=      5-min Rain = 0
KUM1 240040Z 35009KT 02/M06 A3003 RMK A01 T00231056  RH  056%=      5-min Rain = 0
KUM1 240041Z 00009KT 02/M06 A3003 RMK A01 T00221056  RH  057%=      5-min Rain = 0
KUM1 240042Z 36009KT 02/M06 A3003 RMK A01 T00211055  RH  057%=      5-min Rain = 0
KUM1 240043Z 36008KT 02/M06 A3003 RMK A01 T00211055  RH  057%=      5-min Rain = 0
KUM1 240044Z 35008KT 02/M05 A3003 RMK A01 T00201054  RH  058%=      5-min Rain = 0
KUM1 240045Z 36007KT 02/M05 A3003 RMK A01 T00191053  RH  059%=      5-min Rain = 0
KUM1 240046Z 36008KT 02/M05 A3003 RMK A01 T00191053  RH  059%=      5-min Rain = 0
KUM1 240047Z 35008KT 02/M05 A3004 RMK A01 T00181052  RH  059%=      5-min Rain = 0
KUM1 240048Z 35008KT 02/M05 A3004 RMK A01 T00181051  RH  060%=      5-min Rain = 0
KUM1 240049Z 35007KT 02/M05 A3004 RMK A01 T00171050  RH  061%=      5-min Rain = 0
KUM1 240050Z 36008KT 02/M05 A3004 RMK A01 T00161049  RH  062%=      5-min Rain = 0
KUM1 240051Z 00007KT 02/M05 A3004 RMK A01 T00151050  RH  062%=      5-min Rain = 0
KUM1 240052Z 00007KT 02/M05 A3004 RMK A01 T00151049  RH  062%=      5-min Rain = 0
KUM1 240053Z 00007KT 01/M05 A3004 RMK A01 T00141048  RH  063%=      5-min Rain = 0
KUM1 240054Z 00008KT 01/M05 A3004 RMK A01 T00131048  RH  064%=      5-min Rain = 0
KUM1 240055Z 00008KT 01/M05 A3004 RMK A01 T00121048  RH  064%=      5-min Rain = 0
KUM1 240056Z 00008KT 01/M05 A3004 RMK A01 T00121048  RH  064%=      5-min Rain = 0
KUM1 240057Z 01008KT 01/M05 A3004 RMK A01 T00121049  RH  064%=      5-min Rain = 0
KUM1 240058Z 01008KT 01/M05 A3004 RMK A01 T00121051  RH  063%=      5-min Rain = 0
KUM1 240059Z 01008KT 01/M05 A3004 RMK A01 T00131052  RH  062%=      5-min Rain = 0
KUM1 240100Z 01008KT 01/M05 A3004 RMK A01 T00131051  RH  062%=      5-min Rain = 0
KUM1 240101Z 00007KT 01/M05 A3004 RMK A01 T00131051  RH  062%=      5-min Rain = 0
KUM1 240102Z 36007KT 01/M05 A3004 RMK A01 T00121051  RH  063%=      5-min Rain = 0
KUM1 240103Z 00007KT 01/M05 A3004 RMK A01 T00111051  RH  063%=      5-min Rain = 0
KUM1 240104Z 00007KT 01/M05 A3004 RMK A01 T00101052  RH  063%=      5-min Rain = 0
KUM1 240105Z 00007KT 01/M05 A3004 RMK A01 T00091052  RH  064%=      5-min Rain = 0
KUM1 240106Z 00008KT 01/M05 A3004 RMK A01 T00091052  RH  064%=      5-min Rain = 0
KUM1 240107Z 01008KT 01/M05 A3004 RMK A01 T00081052  RH  064%=      5-min Rain = 0
KUM1 240108Z 01008KT 01/M05 A3004 RMK A01 T00071052  RH  065%=      5-min Rain = 0
KUM1 240109Z 00007KT 01/M05 A3004 RMK A01 T00061053  RH  065%=      5-min Rain = 0
KUM1 240110Z 00007KT 01/M05 A3004 RMK A01 T00051054  RH  064%=      5-min Rain = 0
KUM1 240111Z 00006KT 01/M06 A3005 RMK A01 T00051056  RH  064%=      5-min Rain = 0
KUM1 240112Z 36005KT 01/M06 A3005 RMK A01 T00061056  RH  064%=      5-min Rain = 0
KUM1 240113Z 35005KT 01/M06 A3005 RMK A01 T00051056  RH  064%=      5-min Rain = 0
KUM1 240114Z 35005KT 00/M06 A3005 RMK A01 T00041056  RH  064%=      5-min Rain = 0
KUM1 240115Z 35006KT 00/M06 A3005 RMK A01 T00041056  RH  064%=      5-min Rain = 0
KUM1 240116Z 35006KT 00/M06 A3005 RMK A01 T00031057  RH  064%=      5-min Rain = 0
KUM1 240117Z 35007KT 00/M06 A3005 RMK A01 T00031057  RH  064%=      5-min Rain = 0
KUM1 240118Z 35006KT 00/M06 A3005 RMK A01 T00031057  RH  064%=      5-min Rain = 0
KUM1 240119Z 35007KT 00/M06 A3005 RMK A01 T00021057  RH  064%=      5-min Rain = 0
KUM1 240120Z 35007KT 00/M06 A3005 RMK A01 T00011057  RH  065%=      5-min Rain = 0
KUM1 240121Z 35008KT 00/06 A3005 RMK A01 T00000-57  RH  065%=      5-min Rain = 0
KUM1 240122Z 34008KT 00/06 A3005 RMK A01 T00000-56  RH  066%=      5-min Rain = 0
KUM1 240123Z 34008KT M00/M06 A3005 RMK A01 T10011056  RH  066%=      5-min Rain = 0
KUM1 240124Z 35008KT M00/M06 A3005 RMK A01 T10011057  RH  066%=      5-min Rain = 0
KUM1 240125Z 35008KT M00/M06 A3005 RMK A01 T10011056  RH  066%=      5-min Rain = 0
KUM1 240126Z 35008KT M00/M06 A3005 RMK A01 T10021056  RH  067%=      5-min Rain = 0
KUM1 240127Z 35008KT M00/M06 A3005 RMK A01 T10021057  RH  067%=      5-min Rain = 0
KUM1 240128Z 35008KT M00/M06 A3005 RMK A01 T10021057  RH  067%=      5-min Rain = 0
KUM1 240129Z 35008KT M00/M06 A3005 RMK A01 T10031056  RH  067%=      5-min Rain = 0
KUM1 240130Z 35008KT M00/M06 A3005 RMK A01 T10041057  RH  067%=      5-min Rain = 0
KUM1 240131Z 35008KT M00/M06 A3005 RMK A01 T10041057  RH  068%=      5-min Rain = 0
KUM1 240132Z 35008KT M01/M06 A3005 RMK A01 T10051056  RH  068%=      5-min Rain = 0
KUM1 240133Z 35008KT M01/M06 A3005 RMK A01 T10061056  RH  069%=      5-min Rain = 0
KUM1 240134Z 35008KT M01/M06 A3005 RMK A01 T10071057  RH  069%=      5-min Rain = 0
KUM1 240135Z 35008KT M01/M06 A3005 RMK A01 T10081057  RH  070%=      5-min Rain = 0
KUM1 240136Z 35009KT M01/M06 A3005 RMK A01 T10091057  RH  070%=      5-min Rain = 0
KUM1 240137Z 35009KT M01/M06 A3006 RMK A01 T10091056  RH  070%=      5-min Rain = 0
KUM1 240138Z 35009KT M01/M06 A3006 RMK A01 T10091057  RH  070%=      5-min Rain = 0
KUM1 240139Z 35008KT M01/M06 A3006 RMK A01 T10091057  RH  070%=      5-min Rain = 0
KUM1 240140Z 35009KT M01/M06 A3006 RMK A01 T10081058  RH  069%=      5-min Rain = 0
KUM1 240141Z 35008KT M01/M06 A3006 RMK A01 T10061058  RH  068%=      5-min Rain = 0
KUM1 240142Z 35008KT M01/M06 A3006 RMK A01 T10051058  RH  067%=      5-min Rain = 0
KUM1 240143Z 35008KT M01/M06 A3006 RMK A01 T10051059  RH  067%=      5-min Rain = 0
KUM1 240144Z 35008KT M01/M06 A3006 RMK A01 T10051059  RH  067%=      5-min Rain = 0
KUM1 240145Z 35007KT M00/M06 A3006 RMK A01 T10041059  RH  066%=      5-min Rain = 0
KUM1 240146Z 35007KT M00/M06 A3006 RMK A01 T10041058  RH  067%=      5-min Rain = 0
KUM1 240147Z 35007KT M01/M06 A3006 RMK A01 T10051058  RH  067%=      5-min Rain = 0
KUM1 240148Z 35007KT M01/M06 A3006 RMK A01 T10051057  RH  068%=      5-min Rain = 0
KUM1 240149Z 35007KT M01/M06 A3006 RMK A01 T10061057  RH  068%=      5-min Rain = 0
KUM1 240150Z 35008KT M01/M06 A3006 RMK A01 T10061056  RH  069%=      5-min Rain = 0
KUM1 240151Z 36009KT M01/M06 A3006 RMK A01 T10061057  RH  068%=      5-min Rain = 0
KUM1 240152Z 35008KT M01/M06 A3006 RMK A01 T10051058  RH  067%=      5-min Rain = 0
KUM1 240153Z 36009KT M00/M06 A3006 RMK A01 T10031059  RH  066%=      5-min Rain = 0
KUM1 240154Z 35008KT M00/M06 A3007 RMK A01 T10031059  RH  066%=      5-min Rain = 0
KUM1 240155Z 35008KT M00/M06 A3007 RMK A01 T10031059  RH  066%=      5-min Rain = 0
KUM1 240156Z 36009KT M00/M06 A3007 RMK A01 T10031059  RH  066%=      5-min Rain = 0
KUM1 240157Z 35009KT M00/M06 A3007 RMK A01 T10031060  RH  065%=      5-min Rain = 0
KUM1 240158Z 35009KT M00/M06 A3007 RMK A01 T10021061  RH  064%=      5-min Rain = 0
KUM1 240159Z 35009KT M00/M06 A3007 RMK A01 T10021062  RH  064%=      5-min Rain = 0
KUM1 240200Z 35009KT M00/M06 A3007 RMK A01 T10011062  RH  064%=      5-min Rain = 0
KUM1 240201Z 35009KT M00/M06 A3007 RMK A01 T10021063  RH  064%=      5-min Rain = 0
KUM1 240202Z 35009KT M00/M06 A3007 RMK A01 T10021063  RH  064%=      5-min Rain = 0
KUM1 240203Z 35009KT M00/M06 A3007 RMK A01 T10021062  RH  064%=      5-min Rain = 0
KUM1 240204Z 35009KT M00/M06 A3008 RMK A01 T10031062  RH  065%=      5-min Rain = 0
KUM1 240205Z 35009KT M00/M06 A3008 RMK A01 T10041062  RH  065%=      5-min Rain = 0
KUM1 240206Z 34009KT M00/M06 A3008 RMK A01 T10041062  RH  065%=      5-min Rain = 0
KUM1 240207Z 35009KT M01/M06 A3008 RMK A01 T10051062  RH  065%=      5-min Rain = 0
KUM1 240208Z 34009KT M01/M06 A3008 RMK A01 T10051063  RH  065%=      5-min Rain = 0
KUM1 240209Z 34008KT M01/M06 A3008 RMK A01 T10061063  RH  065%=      5-min Rain = 0
KUM1 240210Z 34008KT M01/M06 A3008 RMK A01 T10061062  RH  066%=      5-min Rain = 0
KUM1 240211Z 34008KT M01/M06 A3008 RMK A01 T10071062  RH  066%=      5-min Rain = 0
KUM1 240212Z 34007KT M01/M06 A3008 RMK A01 T10081062  RH  067%=      5-min Rain = 0
KUM1 240213Z 34008KT M01/M06 A3009 RMK A01 T10081062  RH  067%=      5-min Rain = 0
KUM1 240214Z 34008KT M01/M06 A3009 RMK A01 T10091062  RH  067%=      5-min Rain = 0
KUM1 240215Z 34008KT M01/M06 A3009 RMK A01 T10091063  RH  067%=      5-min Rain = 0
KUM1 240216Z 34007KT M01/M06 A3009 RMK A01 T10101063  RH  067%=      5-min Rain = 0
KUM1 240217Z 34007KT M01/M06 A3009 RMK A01 T10101063  RH  067%=      5-min Rain = 0
KUM1 240218Z 34007KT M01/M06 A3009 RMK A01 T10101064  RH  067%=      5-min Rain = 0
KUM1 240219Z 34006KT M01/M06 A3009 RMK A01 T10111063  RH  067%=      5-min Rain = 0
KUM1 240220Z 34006KT M01/M06 A3009 RMK A01 T10111063  RH  068%=      5-min Rain = 0
KUM1 240221Z 34006KT M01/M06 A3009 RMK A01 T10121062  RH  069%=      5-min Rain = 0
KUM1 240222Z 34005KT M01/M06 A3009 RMK A01 T10131063  RH  069%=      5-min Rain = 0
KUM1 240223Z 33005KT M01/M06 A3009 RMK A01 T10131063  RH  069%=      5-min Rain = 0
KUM1 240224Z 33005KT M01/M06 A3009 RMK A01 T10141063  RH  069%=      5-min Rain = 0
KUM1 240225Z 33005KT M02/M06 A3009 RMK A01 T10151063  RH  069%=      5-min Rain = 0
KUM1 240226Z 33005KT M02/M06 A301 RMK A01 T10151064  RH  069%=      5-min Rain = 0
KUM1 240227Z 33005KT M02/M06 A301 RMK A01 T10161064  RH  069%=      5-min Rain = 0
KUM1 240228Z 34004KT M02/M07 A301 RMK A01 T10161065  RH  069%=      5-min Rain = 0
KUM1 240229Z 34004KT M02/M07 A301 RMK A01 T10161065  RH  069%=      5-min Rain = 0
KUM1 240230Z 34003KT M02/M07 A301 RMK A01 T10161065  RH  069%=      5-min Rain = 0
KUM1 240231Z 35003KT M02/M07 A301 RMK A01 T10171065  RH  070%=      5-min Rain = 0
KUM1 240232Z 35003KT M02/M07 A301 RMK A01 T10171065  RH  070%=      5-min Rain = 0
KUM1 240233Z 35002KT M02/M07 A301 RMK A01 T10171066  RH  069%=      5-min Rain = 0
KUM1 240234Z 35002KT M02/M07 A301 RMK A01 T10181065  RH  070%=      5-min Rain = 0
KUM1 240235Z 34001KT M02/M07 A301 RMK A01 T10181065  RH  070%=      5-min Rain = 0
KUM1 240236Z 33001KT M02/M07 A301 RMK A01 T10181066  RH  070%=      5-min Rain = 0
KUM1 240237Z 33001KT M02/M07 A301 RMK A01 T10181067  RH  069%=      5-min Rain = 0
KUM1 240238Z 33001KT M02/M07 A301 RMK A01 T10171068  RH  068%=      5-min Rain = 0
KUM1 240239Z 33001KT M02/M07 A301 RMK A01 T10161068  RH  068%=      5-min Rain = 0
KUM1 240240Z 33001KT M02/M07 A301 RMK A01 T10161068  RH  067%=      5-min Rain = 0
KUM1 240241Z 33001KT M02/M07 A301 RMK A01 T10151068  RH  067%=      5-min Rain = 0
KUM1 240242Z 33002KT M02/M07 A301 RMK A01 T10161069  RH  067%=      5-min Rain = 0
KUM1 240243Z 33003KT M02/M07 A301 RMK A01 T10151069  RH  067%=      5-min Rain = 0
KUM1 240244Z 34003KT M02/M07 A301 RMK A01 T10151069  RH  067%=      5-min Rain = 0
KUM1 240245Z 34003KT M01/M07 A301 RMK A01 T10141069  RH  066%=      5-min Rain = 0
KUM1 240246Z 35004KT M01/M07 A301 RMK A01 T10141069  RH  066%=      5-min Rain = 0
KUM1 240247Z 35004KT M01/M07 A301 RMK A01 T10131069  RH  066%=      5-min Rain = 0
KUM1 240248Z 35004KT M01/M07 A301 RMK A01 T10121069  RH  065%=      5-min Rain = 0
KUM1 240249Z 35005KT M01/M07 A301 RMK A01 T10121069  RH  065%=      5-min Rain = 0
KUM1 240250Z 35005KT M01/M07 A301 RMK A01 T10121069  RH  065%=      5-min Rain = 0
KUM1 240251Z 34005KT M01/M07 A301 RMK A01 T10121068  RH  066%=      5-min Rain = 0
KUM1 240252Z 34005KT M01/M07 A301 RMK A01 T10141066  RH  068%=      5-min Rain = 0
KUM1 240253Z 34005KT M02/M06 A3011 RMK A01 T10161064  RH  070%=      5-min Rain = 0
KUM1 240254Z 34005KT M02/M06 A3011 RMK A01 T10181063  RH  071%=      5-min Rain = 0
KUM1 240255Z 33005KT M02/M06 A3011 RMK A01 T10191063  RH  072%=      5-min Rain = 0
KUM1 240256Z 33005KT M02/M06 A3011 RMK A01 T10211062  RH  073%=      5-min Rain = 0
KUM1 240257Z 33005KT M02/M06 A3011 RMK A01 T10221062  RH  074%=      5-min Rain = 0
KUM1 240258Z 33005KT M02/M06 A3011 RMK A01 T10221063  RH  074%=      5-min Rain = 0
KUM1 240259Z 34005KT M02/M06 A3011 RMK A01 T10231063  RH  074%=      5-min Rain = 0
KUM1 240300Z 34005KT M02/M06 A3011 RMK A01 T10231063  RH  075%=      5-min Rain = 0
KUM1 240301Z 33005KT M03/M06 A3011 RMK A01 T10251063  RH  075%=      5-min Rain = 0
KUM1 240302Z 32005KT M03/M06 A3011 RMK A01 T10261064  RH  075%=      5-min Rain = 0
KUM1 240303Z 32005KT M03/M06 A3011 RMK A01 T10271064  RH  075%=      5-min Rain = 0
KUM1 240304Z 31004KT M03/M07 A3012 RMK A01 T10281066  RH  075%=      5-min Rain = 0
KUM1 240305Z 30004KT M03/M07 A3012 RMK A01 T10301066  RH  076%=      5-min Rain = 0
KUM1 240306Z 29004KT M03/M07 A3012 RMK A01 T10301066  RH  076%=      5-min Rain = 0
KUM1 240307Z 30004KT M03/M07 A3012 RMK A01 T10311065  RH  077%=      5-min Rain = 0
KUM1 240308Z 30003KT M03/M07 A3012 RMK A01 T10321066  RH  077%=      5-min Rain = 0
KUM1 240309Z 30003KT M03/M07 A3012 RMK A01 T10311065  RH  077%=      5-min Rain = 0
KUM1 240310Z 29002KT M03/M07 A3012 RMK A01 T10291065  RH  076%=      5-min Rain = 0
KUM1 240311Z 23001KT M03/M07 A3013 RMK A01 T10251065  RH  074%=      5-min Rain = 0
KUM1 240312Z 19005KT M03/M06 A3013 RMK A01 T10251063  RH  075%=      5-min Rain = 0
KUM1 240313Z 19006KT M03/M06 A3013 RMK A01 T10261061  RH  077%=      5-min Rain = 0
KUM1 240314Z 19006KT M03/M06 A3013 RMK A01 T10251061  RH  077%=      5-min Rain = 0
KUM1 240315Z 19006KT M02/M06 A3013 RMK A01 T10241061  RH  076%=      5-min Rain = 0
KUM1 240316Z 18005KT M02/M06 A3013 RMK A01 T10221062  RH  074%=      5-min Rain = 0
KUM1 240317Z 18003KT M02/M06 A3013 RMK A01 T10201062  RH  073%=      5-min Rain = 0
KUM1 240318Z 18003KT M02/M06 A3013 RMK A01 T10191064  RH  072%=      5-min Rain = 0
KUM1 240319Z 19002KT M02/M06 A3013 RMK A01 T10191063  RH  071%=      5-min Rain = 0
KUM1 240320Z 20002KT M02/M06 A3013 RMK A01 T10191064  RH  072%=      5-min Rain = 0
KUM1 240321Z 20001KT M02/M06 A3013 RMK A01 T10211064  RH  072%=      5-min Rain = 0
KUM1 240322Z 00000KT M02/M06 A3013 RMK A01 T10221062  RH  074%=      5-min Rain = 0
KUM1 240323Z 00000KT M02/M06 A3013 RMK A01 T10231062  RH  075%=      5-min Rain = 0
KUM1 240324Z 00000KT M02/M06 A3013 RMK A01 T10241062  RH  075%=      5-min Rain = 0
KUM1 240325Z 00000KT M03/M06 A3013 RMK A01 T10251061  RH  076%=      5-min Rain = 0
KUM1 240326Z 02001KT M03/M06 A3013 RMK A01 T10251062  RH  076%=      5-min Rain = 0
KUM1 240327Z 02000KT M03/M06 A3014 RMK A01 T10261062  RH  076%=      5-min Rain = 0
KUM1 240328Z 02000KT M03/M06 A3014 RMK A01 T10261061  RH  077%=      5-min Rain = 0
KUM1 240329Z 00000KT M03/M06 A3014 RMK A01 T10261062  RH  076%=      5-min Rain = 0
KUM1 240330Z 09001KT M03/M06 A3014 RMK A01 T10261062  RH  076%=      5-min Rain = 0
KUM1 240331Z 13001KT M03/M06 A3014 RMK A01 T10261062  RH  076%=      5-min Rain = 0
KUM1 240332Z 07000KT M03/M06 A3014 RMK A01 T10261063  RH  076%=      5-min Rain = 0
KUM1 240333Z 06001KT M03/M07 A3014 RMK A01 T10251066  RH  074%=      5-min Rain = 0
KUM1 240334Z 09001KT M02/M07 A3014 RMK A01 T10231065  RH  073%=      5-min Rain = 0
KUM1 240335Z 08002KT M02/M07 A3014 RMK A01 T10241065  RH  073%=      5-min Rain = 0
KUM1 240336Z 08002KT M03/M07 A3014 RMK A01 T10251065  RH  074%=      5-min Rain = 0
KUM1 240337Z 09001KT M03/M07 A3014 RMK A01 T10251066  RH  074%=      5-min Rain = 0
KUM1 240338Z 10000KT M03/M06 A3014 RMK A01 T10261064  RH  075%=      5-min Rain = 0
KUM1 240339Z 10001KT M03/M06 A3014 RMK A01 T10261064  RH  075%=      5-min Rain = 0
KUM1 240340Z 08001KT M03/M06 A3014 RMK A01 T10271064  RH  076%=      5-min Rain = 0
KUM1 240341Z 09001KT M03/M06 A3014 RMK A01 T10281064  RH  076%=      5-min Rain = 0
KUM1 240342Z 09001KT M03/M06 A3014 RMK A01 T10281063  RH  077%=      5-min Rain = 0
KUM1 240343Z 08001KT M03/M06 A3015 RMK A01 T10291063  RH  078%=      5-min Rain = 0
KUM1 240344Z 07001KT M03/M06 A3015 RMK A01 T10291063  RH  078%=      5-min Rain = 0
KUM1 240345Z 06001KT M03/M06 A3015 RMK A01 T10301062  RH  078%=      5-min Rain = 0
KUM1 240346Z 05001KT M03/M06 A3015 RMK A01 T10301063  RH  079%=      5-min Rain = 0
KUM1 240347Z 07000KT M03/M07 A3015 RMK A01 T10301065  RH  077%=      5-min Rain = 0
KUM1 240348Z 07001KT M03/M07 A3015 RMK A01 T10301065  RH  077%=      5-min Rain = 0
KUM1 240349Z 06001KT M03/M06 A3015 RMK A01 T10291064  RH  076%=      5-min Rain = 0
KUM1 240350Z 08000KT M03/M07 A3015 RMK A01 T10271065  RH  075%=      5-min Rain = 0
KUM1 240351Z 10001KT M03/M07 A3015 RMK A01 T10261066  RH  074%=      5-min Rain = 0
KUM1 240352Z 13002KT M02/M07 A3015 RMK A01 T10241067  RH  072%=      5-min Rain = 0
KUM1 240353Z 14002KT M02/M07 A3015 RMK A01 T10231066  RH  073%=      5-min Rain = 0
KUM1 240354Z 14002KT M02/M07 A3015 RMK A01 T10241065  RH  073%=      5-min Rain = 0
KUM1 240355Z 16002KT M03/M07 A3015 RMK A01 T10261065  RH  074%=      5-min Rain = 0
KUM1 240356Z 18003KT M03/M07 A3015 RMK A01 T10271065  RH  075%=      5-min Rain = 0
KUM1 240357Z 19003KT M03/M06 A3015 RMK A01 T10291064  RH  076%=      5-min Rain = 0
KUM1 240358Z 19003KT M03/M06 A3015 RMK A01 T10301064  RH  077%=      5-min Rain = 0
KUM1 240359Z 19003KT M03/M06 A3016 RMK A01 T10301064  RH  078%=      5-min Rain = 0
KUM1 240400Z 19002KT M03/M06 A3016 RMK A01 T10311064  RH  078%=      5-min Rain = 0
KUM1 240401Z 20002KT M03/M07 A3016 RMK A01 T10311065  RH  078%=      5-min Rain = 0
KUM1 240402Z 20002KT M03/M07 A3016 RMK A01 T10311065  RH  077%=      5-min Rain = 0
KUM1 240403Z 21002KT M03/M07 A3016 RMK A01 T10301065  RH  077%=      5-min Rain = 0
KUM1 240404Z 21002KT M03/M07 A3016 RMK A01 T10291065  RH  076%=      5-min Rain = 0
KUM1 240405Z 20002KT M03/M07 A3016 RMK A01 T10261066  RH  074%=      5-min Rain = 0
KUM1 240406Z 21002KT M03/M07 A3016 RMK A01 T10251067  RH  073%=      5-min Rain = 0
KUM1 240407Z 21002KT M02/M07 A3016 RMK A01 T10241068  RH  072%=      5-min Rain = 0
KUM1 240408Z 22002KT M02/M07 A3016 RMK A01 T10221068  RH  071%=      5-min Rain = 0
KUM1 240409Z 22002KT M02/M07 A3016 RMK A01 T10211069  RH  070%=      5-min Rain = 0
KUM1 240410Z 22002KT M02/M07 A3016 RMK A01 T10201069  RH  069%=      5-min Rain = 0
KUM1 240411Z 21002KT M02/M07 A3016 RMK A01 T10191072  RH  067%=      5-min Rain = 0
KUM1 240412Z 21003KT M02/M07 A3016 RMK A01 T10161073  RH  065%=      5-min Rain = 0
KUM1 240413Z 20003KT M02/M07 A3016 RMK A01 T10171071  RH  066%=      5-min Rain = 0
KUM1 240414Z 20003KT M02/M07 A3016 RMK A01 T10191071  RH  068%=      5-min Rain = 0
KUM1 240415Z 20003KT M02/M07 A3016 RMK A01 T10231071  RH  070%=      5-min Rain = 0
KUM1 240416Z 20004KT M03/M07 A3016 RMK A01 T10261070  RH  072%=      5-min Rain = 0
KUM1 240417Z 21006KT M03/M07 A3017 RMK A01 T10281069  RH  073%=      5-min Rain = 0
KUM1 240418Z 21006KT M03/M07 A3017 RMK A01 T10311069  RH  075%=      5-min Rain = 0
KUM1 240419Z 20006KT M03/M07 A3017 RMK A01 T10341069  RH  077%=      5-min Rain = 0
KUM1 240420Z 20005KT M04/M07 A3017 RMK A01 T10351067  RH  079%=      5-min Rain = 0
KUM1 240421Z 20005KT M04/M07 A3017 RMK A01 T10361066  RH  080%=      5-min Rain = 0
KUM1 240422Z 20005KT M04/M07 A3017 RMK A01 T10361065  RH  080%=      5-min Rain = 0
KUM1 240423Z 20004KT M04/M07 A3017 RMK A01 T10361065  RH  080%=      5-min Rain = 0
KUM1 240424Z 20004KT M04/M07 A3017 RMK A01 T10361065  RH  080%=      5-min Rain = 0
KUM1 240425Z 21004KT M04/M07 A3017 RMK A01 T10361065  RH  080%=      5-min Rain = 0
KUM1 240426Z 21003KT M04/M07 A3017 RMK A01 T10361065  RH  080%=      5-min Rain = 0
KUM1 240427Z 21003KT M04/M06 A3017 RMK A01 T10361064  RH  081%=      5-min Rain = 0
KUM1 240428Z 21003KT M04/M06 A3017 RMK A01 T10361064  RH  081%=      5-min Rain = 0
KUM1 240429Z 21003KT M03/M06 A3017 RMK A01 T10341064  RH  080%=      5-min Rain = 0
KUM1 240430Z 21003KT M03/M06 A3017 RMK A01 T10321064  RH  079%=      5-min Rain = 0
KUM1 240431Z 21003KT M03/M06 A3017 RMK A01 T10321064  RH  079%=      5-min Rain = 0
KUM1 240432Z 21004KT M03/M06 A3017 RMK A01 T10331063  RH  079%=      5-min Rain = 0
KUM1 240433Z 21004KT M03/M06 A3017 RMK A01 T10331063  RH  080%=      5-min Rain = 0
KUM1 240434Z 21004KT M04/M06 A3017 RMK A01 T10351063  RH  081%=      5-min Rain = 0
KUM1 240435Z 21005KT M04/M06 A3017 RMK A01 T10361064  RH  081%=      5-min Rain = 0
KUM1 240436Z 21005KT M04/M06 A3017 RMK A01 T10371064  RH  082%=      5-min Rain = 0
KUM1 240437Z 22005KT M04/M06 A3017 RMK A01 T10391064  RH  082%=      5-min Rain = 0
KUM1 240438Z 21005KT M04/M06 A3017 RMK A01 T10401064  RH  083%=      5-min Rain = 0
KUM1 240439Z 21005KT M04/M06 A3017 RMK A01 T10391063  RH  083%=      5-min Rain = 0
KUM1 240440Z 20005KT M04/M06 A3017 RMK A01 T10401063  RH  084%=      5-min Rain = 0
KUM1 240441Z 20005KT M04/M06 A3018 RMK A01 T10401064  RH  083%=      5-min Rain = 0
KUM1 240442Z 20004KT M04/M06 A3018 RMK A01 T10401064  RH  083%=      5-min Rain = 0
KUM1 240443Z 20004KT M04/M07 A3018 RMK A01 T10391065  RH  083%=      5-min Rain = 0
KUM1 240444Z 20004KT M04/M07 A3018 RMK A01 T10381065  RH  082%=      5-min Rain = 0
KUM1 240445Z 20004KT M04/M07 A3018 RMK A01 T10371065  RH  081%=      5-min Rain = 0
KUM1 240446Z 20004KT M04/M07 A3018 RMK A01 T10361065  RH  080%=      5-min Rain = 0
KUM1 240447Z 21004KT M04/M07 A3018 RMK A01 T10351065  RH  079%=      5-min Rain = 0
KUM1 240448Z 22004KT M03/M07 A3018 RMK A01 T10321065  RH  078%=      5-min Rain = 0
KUM1 240449Z 23004KT M03/M07 A3018 RMK A01 T10281065  RH  076%=      5-min Rain = 0
KUM1 240450Z 24004KT M03/M07 A3018 RMK A01 T10281065  RH  076%=      5-min Rain = 0
KUM1 240451Z 24004KT M03/M07 A3018 RMK A01 T10301065  RH  077%=      5-min Rain = 0
KUM1 240452Z 24004KT M03/M07 A3018 RMK A01 T10341067  RH  078%=      5-min Rain = 0
KUM1 240453Z 23004KT M04/M07 A3018 RMK A01 T10361067  RH  079%=      5-min Rain = 0
KUM1 240454Z 24004KT M04/M07 A3018 RMK A01 T10371066  RH  080%=      5-min Rain = 0
KUM1 240455Z 24003KT M04/M07 A3018 RMK A01 T10381066  RH  081%=      5-min Rain = 0
KUM1 240456Z 24003KT M04/M07 A3018 RMK A01 T10381066  RH  081%=      5-min Rain = 0
KUM1 240457Z 24003KT M04/M07 A3018 RMK A01 T10371065  RH  081%=      5-min Rain = 0
KUM1 240458Z 25003KT M04/M06 A3018 RMK A01 T10371064  RH  081%=      5-min Rain = 0
KUM1 240459Z 24003KT M04/M07 A3018 RMK A01 T10371065  RH  081%=      5-min Rain = 0
KUM1 240500Z 24003KT M04/M07 A3018 RMK A01 T10371065  RH  081%=      5-min Rain = 0
KUM1 240501Z 24004KT M04/M07 A3018 RMK A01 T10371065  RH  081%=      5-min Rain = 0
KUM1 240502Z 24004KT M04/M07 A3019 RMK A01 T10371065  RH  081%=      5-min Rain = 0
KUM1 240503Z 24004KT M04/M07 A3019 RMK A01 T10371065  RH  081%=      5-min Rain = 0
KUM1 240504Z 24004KT M04/M06 A3019 RMK A01 T10361064  RH  081%=      5-min Rain = 0
KUM1 240505Z 24004KT M04/M06 A3019 RMK A01 T10361063  RH  081%=      5-min Rain = 0
KUM1 240506Z 25004KT M04/M06 A3019 RMK A01 T10351062  RH  082%=      5-min Rain = 0
KUM1 240507Z 25004KT M03/M06 A3019 RMK A01 T10341061  RH  082%=      5-min Rain = 0
KUM1 240508Z 25003KT M04/M06 A3019 RMK A01 T10351061  RH  082%=      5-min Rain = 0
KUM1 240509Z 26003KT M04/M06 A3019 RMK A01 T10361061  RH  083%=      5-min Rain = 0
KUM1 240510Z 26003KT M04/M06 A3019 RMK A01 T10381062  RH  083%=      5-min Rain = 0
KUM1 240511Z 27002KT M04/M06 A3019 RMK A01 T10391063  RH  083%=      5-min Rain = 0
KUM1 240512Z 27002KT M04/M07 A3019 RMK A01 T10411066  RH  083%=      5-min Rain = 0
KUM1 240513Z 27002KT M04/M07 A3019 RMK A01 T10421067  RH  083%=      5-min Rain = 0
KUM1 240514Z 27003KT M04/M07 A3019 RMK A01 T10421068  RH  082%=      5-min Rain = 0
KUM1 240515Z 26005KT M04/M07 A3019 RMK A01 T10441069  RH  083%=      5-min Rain = 0
KUM1 240516Z 27005KT M04/M07 A3019 RMK A01 T10441069  RH  083%=      5-min Rain = 0
KUM1 240517Z 27005KT M05/M07 A3019 RMK A01 T10451069  RH  083%=      5-min Rain = 0
KUM1 240518Z 27005KT M05/M07 A3019 RMK A01 T10461070  RH  083%=      5-min Rain = 0
KUM1 240519Z 27005KT M05/M07 A3019 RMK A01 T10471070  RH  084%=      5-min Rain = 0
KUM1 240520Z 27005KT M05/M07 A3019 RMK A01 T10471070  RH  084%=      5-min Rain = 0
KUM1 240521Z 27004KT M05/M07 A3019 RMK A01 T10481071  RH  084%=      5-min Rain = 0
KUM1 240522Z 27005KT M05/M07 A3019 RMK A01 T10491071  RH  085%=      5-min Rain = 0
KUM1 240523Z 27005KT M05/M07 A3019 RMK A01 T10501072  RH  085%=      5-min Rain = 0
KUM1 240524Z 27005KT M05/M07 A3019 RMK A01 T10511071  RH  085%=      5-min Rain = 0
KUM1 240525Z 27005KT M05/M07 A3019 RMK A01 T10511072  RH  086%=      5-min Rain = 0
KUM1 240526Z 27005KT M05/M07 A302 RMK A01 T10521073  RH  086%=      5-min Rain = 0
KUM1 240527Z 30004KT M05/M07 A302 RMK A01 T10531073  RH  086%=      5-min Rain = 0
KUM1 240528Z 28004KT M05/M07 A302 RMK A01 T10531073  RH  086%=      5-min Rain = 0
KUM1 240529Z 28004KT M05/M07 A302 RMK A01 T10531072  RH  087%=      5-min Rain = 0
KUM1 240530Z 30003KT M05/M07 A302 RMK A01 T10521070  RH  087%=      5-min Rain = 0
KUM1 240531Z 28004KT M05/M07 A302 RMK A01 T10511069  RH  087%=      5-min Rain = 0
KUM1 240532Z 27004KT M05/M07 A302 RMK A01 T10501068  RH  087%=      5-min Rain = 0
KUM1 240533Z 27006KT M05/M07 A302 RMK A01 T10491068  RH  086%=      5-min Rain = 0
KUM1 240534Z 28004KT M05/M07 A302 RMK A01 T10481068  RH  086%=      5-min Rain = 0
KUM1 240535Z 29004KT M05/M07 A302 RMK A01 T10471068  RH  086%=      5-min Rain = 0
KUM1 240536Z 28004KT M05/M07 A302 RMK A01 T10481069  RH  085%=      5-min Rain = 0
KUM1 240537Z 27004KT M05/M07 A302 RMK A01 T10461070  RH  083%=      5-min Rain = 0
KUM1 240538Z 28005KT M04/M07 A302 RMK A01 T10431070  RH  081%=      5-min Rain = 0
KUM1 240539Z 28004KT M04/M07 A302 RMK A01 T10421071  RH  080%=      5-min Rain = 0
KUM1 240540Z 28004KT M04/M07 A302 RMK A01 T10411073  RH  079%=      5-min Rain = 0
KUM1 240541Z 28004KT M04/M07 A302 RMK A01 T10411074  RH  078%=      5-min Rain = 0
KUM1 240542Z 29003KT M04/M07 A302 RMK A01 T10411074  RH  078%=      5-min Rain = 0
KUM1 240543Z 30003KT M04/M08 A302 RMK A01 T10421075  RH  077%=      5-min Rain = 0
KUM1 240544Z 30003KT M04/M08 A302 RMK A01 T10421076  RH  078%=      5-min Rain = 0
KUM1 240545Z 29004KT M04/M08 A302 RMK A01 T10431076  RH  078%=      5-min Rain = 0
KUM1 240546Z 28004KT M04/M07 A3021 RMK A01 T10431074  RH  079%=      5-min Rain = 0
KUM1 240547Z 28005KT M04/M07 A3021 RMK A01 T10441074  RH  080%=      5-min Rain = 0
KUM1 240548Z 28004KT M04/M07 A3021 RMK A01 T10441074  RH  080%=      5-min Rain = 0
KUM1 240549Z 28004KT M05/M07 A3021 RMK A01 T10451074  RH  080%=      5-min Rain = 0
KUM1 240550Z 28004KT M05/M07 A3021 RMK A01 T10461074  RH  081%=      5-min Rain = 0
KUM1 240551Z 28004KT M05/M08 A3021 RMK A01 T10471075  RH  081%=      5-min Rain = 0
KUM1 240552Z 28005KT M05/M08 A3021 RMK A01 T10471076  RH  081%=      5-min Rain = 0
KUM1 240553Z 28005KT M05/M08 A3021 RMK A01 T10471076  RH  080%=      5-min Rain = 0
KUM1 240554Z 28004KT M05/M08 A3021 RMK A01 T10471077  RH  080%=      5-min Rain = 0
KUM1 240555Z 28005KT M05/M08 A3021 RMK A01 T10471077  RH  079%=      5-min Rain = 0
KUM1 240556Z 28005KT M05/M08 A3021 RMK A01 T10471077  RH  079%=      5-min Rain = 0
KUM1 240557Z 28005KT M05/M08 A3021 RMK A01 T10461076  RH  079%=      5-min Rain = 0
KUM1 240558Z 28005KT M05/M08 A3021 RMK A01 T10461077  RH  079%=      5-min Rain = 0
KUM1 240559Z 29006KT M05/M08 A3021 RMK A01 T10471077  RH  080%=      5-min Rain = 0

Page generated in 0.0847 seconds.